<?xml version="1.0" encoding="UTF-8"?>
<gpx version="1.0" creator="Trackator" xmlns:xsi="http://www.w3.org/2001/XMLSchema-instance" xmlns="http://www.topografix.com/GPX/1/0" xmlns:topografix="http://www.topografix.com/GPX/Private/TopoGrafix/0/1" xsi:schemaLocation="http://www.topografix.com/GPX/1/0 http://www.topografix.com/GPX/1/0/gpx.xsd http://www.topografix.com/GPX/Private/TopoGrafix/0/1 http://www.topografix.com/GPX/Private/TopoGrafix/0/1/topografix.xsd">
<metadata>
<link href="http://www.trackator.com">
<text>Trackator</text>
</link>
</metadata>
<time>2015-08-29T:41:10Z</time>
<trk>
<name>Track: </name>
<desc>Paragliding</desc>
<trkseg>
<trkpt lat="42.728336983335126" lon="-8.930496960475626">
<ele>702</ele>
<time>2015-08-29T:41:10Z</time>
</trkpt>
<trkpt lat="42.728336983335126" lon="-8.930496960475626">
<ele>700</ele>
<time>2015-08-29T18:41:13Z</time>
</trkpt>
<trkpt lat="42.728336983335126" lon="-8.930496960475626">
<ele>700</ele>
<time>2015-08-29T18:41:15Z</time>
</trkpt>
<trkpt lat="42.728336983335126" lon="-8.930496960475626">
<ele>700</ele>
<time>2015-08-29T18:41:17Z</time>
</trkpt>
<trkpt lat="42.728336983335126" lon="-8.930496960475626">
<ele>701</ele>
<time>2015-08-29T18:41:19Z</time>
</trkpt>
<trkpt lat="42.728336983335126" lon="-8.930496960475626">
<ele>701</ele>
<time>2015-08-29T18:41:21Z</time>
</trkpt>
<trkpt lat="42.728336983335126" lon="-8.930496960475626">
<ele>701</ele>
<time>2015-08-29T18:41:23Z</time>
</trkpt>
<trkpt lat="42.728336983335126" lon="-8.930496960475626">
<ele>701</ele>
<time>2015-08-29T18:41:25Z</time>
</trkpt>
<trkpt lat="42.728336983335126" lon="-8.930496960475626">
<ele>701</ele>
<time>2015-08-29T18:41:27Z</time>
</trkpt>
<trkpt lat="42.728336983335126" lon="-8.930496960475626">
<ele>700</ele>
<time>2015-08-29T18:41:29Z</time>
</trkpt>
<trkpt lat="42.728336983335126" lon="-8.930496960475626">
<ele>700</ele>
<time>2015-08-29T18:41:31Z</time>
</trkpt>
<trkpt lat="42.728336983335126" lon="-8.930496960475626">
<ele>700</ele>
<time>2015-08-29T18:41:33Z</time>
</trkpt>
<trkpt lat="42.728336983335126" lon="-8.930496960475626">
<ele>700</ele>
<time>2015-08-29T18:41:35Z</time>
</trkpt>
<trkpt lat="42.728336983335126" lon="-8.930496960475626">
<ele>700</ele>
<time>2015-08-29T18:41:37Z</time>
</trkpt>
<trkpt lat="42.728336983335126" lon="-8.930496960475626">
<ele>700</ele>
<time>2015-08-29T18:41:39Z</time>
</trkpt>
<trkpt lat="42.728336983335126" lon="-8.930496960475626">
<ele>700</ele>
<time>2015-08-29T18:41:41Z</time>
</trkpt>
<trkpt lat="42.728336983335126" lon="-8.930496960475626">
<ele>700</ele>
<time>2015-08-29T18:41:43Z</time>
</trkpt>
<trkpt lat="42.728336983335126" lon="-8.930496960475626">
<ele>700</ele>
<time>2015-08-29T18:41:45Z</time>
</trkpt>
<trkpt lat="42.728336983335126" lon="-8.930496960475626">
<ele>700</ele>
<time>2015-08-29T18:41:47Z</time>
</trkpt>
<trkpt lat="42.728336983335126" lon="-8.930496960475626">
<ele>700</ele>
<time>2015-08-29T18:41:49Z</time>
</trkpt>
<trkpt lat="42.728336983335126" lon="-8.930496960475626">
<ele>700</ele>
<time>2015-08-29T18:41:51Z</time>
</trkpt>
<trkpt lat="42.728336983335126" lon="-8.930496960475626">
<ele>700</ele>
<time>2015-08-29T18:41:53Z</time>
</trkpt>
<trkpt lat="42.728336983335126" lon="-8.930496960475626">
<ele>700</ele>
<time>2015-08-29T18:41:55Z</time>
</trkpt>
<trkpt lat="42.72835618239111" lon="-8.930526278438784">
<ele>700</ele>
<time>2015-08-29T18:41:57Z</time>
</trkpt>
<trkpt lat="42.72835693794065" lon="-8.930523436001934">
<ele>700</ele>
<time>2015-08-29T18:41:59Z</time>
</trkpt>
<trkpt lat="42.72835848716672" lon="-8.930520154866286">
<ele>700</ele>
<time>2015-08-29T18:42:01Z</time>
</trkpt>
<trkpt lat="42.728358218829754" lon="-8.930517347761436">
<ele>700</ele>
<time>2015-08-29T18:42:03Z</time>
</trkpt>
<trkpt lat="42.72835811737524" lon="-8.930517403705243">
<ele>700</ele>
<time>2015-08-29T18:42:05Z</time>
</trkpt>
<trkpt lat="42.728359027094776" lon="-8.930523522139353">
<ele>700</ele>
<time>2015-08-29T18:42:07Z</time>
</trkpt>
<trkpt lat="42.728358224280484" lon="-8.930529459738377">
<ele>700</ele>
<time>2015-08-29T18:42:09Z</time>
</trkpt>
<trkpt lat="42.7283558236229" lon="-8.930529357679381">
<ele>700</ele>
<time>2015-08-29T18:42:11Z</time>
</trkpt>
<trkpt lat="42.72835330183588" lon="-8.930528557749081">
<ele>700</ele>
<time>2015-08-29T18:42:13Z</time>
</trkpt>
<trkpt lat="42.72835068617999" lon="-8.930528049498568">
<ele>700</ele>
<time>2015-08-29T18:42:15Z</time>
</trkpt>
<trkpt lat="42.72835074651293" lon="-8.930533971802936">
<ele>700</ele>
<time>2015-08-29T18:42:17Z</time>
</trkpt>
<trkpt lat="42.7283518091081" lon="-8.930540346358157">
<ele>700</ele>
<time>2015-08-29T18:42:19Z</time>
</trkpt>
<trkpt lat="42.72835416111937" lon="-8.930543235097733">
<ele>700</ele>
<time>2015-08-29T18:42:21Z</time>
</trkpt>
<trkpt lat="42.72835412105886" lon="-8.930544644757747">
<ele>700</ele>
<time>2015-08-29T18:42:23Z</time>
</trkpt>
<trkpt lat="42.72835468946577" lon="-8.930546485059422">
<ele>700</ele>
<time>2015-08-29T18:42:25Z</time>
</trkpt>
<trkpt lat="42.728352775185314" lon="-8.9305432870558">
<ele>700</ele>
<time>2015-08-29T18:42:27Z</time>
</trkpt>
<trkpt lat="42.72835201579188" lon="-8.930543507098603">
<ele>700</ele>
<time>2015-08-29T18:42:29Z</time>
</trkpt>
<trkpt lat="42.72835213870702" lon="-8.930541341964037">
<ele>700</ele>
<time>2015-08-29T18:42:31Z</time>
</trkpt>
<trkpt lat="42.72835420244896" lon="-8.930540738812514">
<ele>700</ele>
<time>2015-08-29T18:42:33Z</time>
</trkpt>
<trkpt lat="42.728355200220484" lon="-8.930539784438587">
<ele>700</ele>
<time>2015-08-29T18:42:35Z</time>
</trkpt>
<trkpt lat="42.72835542929732" lon="-8.93053838264715">
<ele>700</ele>
<time>2015-08-29T18:42:37Z</time>
</trkpt>
<trkpt lat="42.72835593649774" lon="-8.930539522896266">
<ele>700</ele>
<time>2015-08-29T18:42:39Z</time>
</trkpt>
<trkpt lat="42.728355972430535" lon="-8.930540453984065">
<ele>700</ele>
<time>2015-08-29T18:42:41Z</time>
</trkpt>
<trkpt lat="42.72836002842242" lon="-8.930539307042146">
<ele>700</ele>
<time>2015-08-29T18:42:43Z</time>
</trkpt>
<trkpt lat="42.7283601858053" lon="-8.930538187605467">
<ele>700</ele>
<time>2015-08-29T18:42:45Z</time>
</trkpt>
<trkpt lat="42.72835794245211" lon="-8.930535692351294">
<ele>700</ele>
<time>2015-08-29T18:42:47Z</time>
</trkpt>
<trkpt lat="42.72835577983384" lon="-8.930533628214853">
<ele>700</ele>
<time>2015-08-29T18:42:49Z</time>
</trkpt>
<trkpt lat="42.72835435722587" lon="-8.930532295688284">
<ele>700</ele>
<time>2015-08-29T18:42:51Z</time>
</trkpt>
<trkpt lat="42.72835412675947" lon="-8.930531615181483">
<ele>700</ele>
<time>2015-08-29T18:42:53Z</time>
</trkpt>
<trkpt lat="42.728353231743625" lon="-8.930532790847346">
<ele>700</ele>
<time>2015-08-29T18:42:55Z</time>
</trkpt>
<trkpt lat="42.72835555983423" lon="-8.930536023540816">
<ele>700</ele>
<time>2015-08-29T18:42:57Z</time>
</trkpt>
<trkpt lat="42.7283552514207" lon="-8.930538079043142">
<ele>700</ele>
<time>2015-08-29T18:42:59Z</time>
</trkpt>
<trkpt lat="42.72835285679828" lon="-8.930538617616005">
<ele>700</ele>
<time>2015-08-29T18:43:01Z</time>
</trkpt>
<trkpt lat="42.72834759093354" lon="-8.930538180512142">
<ele>700</ele>
<time>2015-08-29T18:43:03Z</time>
</trkpt>
<trkpt lat="42.72834633323928" lon="-8.930539979331577">
<ele>700</ele>
<time>2015-08-29T18:43:05Z</time>
</trkpt>
<trkpt lat="42.72834598811773" lon="-8.930541594630903">
<ele>700</ele>
<time>2015-08-29T18:43:07Z</time>
</trkpt>
<trkpt lat="42.72834608510647" lon="-8.930544008501627">
<ele>700</ele>
<time>2015-08-29T18:43:09Z</time>
</trkpt>
<trkpt lat="42.72834517873916" lon="-8.930545921528648">
<ele>700</ele>
<time>2015-08-29T18:43:11Z</time>
</trkpt>
<trkpt lat="42.7283466937329" lon="-8.930547390536546">
<ele>700</ele>
<time>2015-08-29T18:43:13Z</time>
</trkpt>
<trkpt lat="42.728351448968105" lon="-8.930549384845822">
<ele>700</ele>
<time>2015-08-29T18:43:15Z</time>
</trkpt>
<trkpt lat="42.72835369133035" lon="-8.930552224477251">
<ele>700</ele>
<time>2015-08-29T18:43:17Z</time>
</trkpt>
<trkpt lat="42.728355375789945" lon="-8.930551612391401">
<ele>700</ele>
<time>2015-08-29T18:43:19Z</time>
</trkpt>
<trkpt lat="42.72835581453" lon="-8.930545947032526">
<ele>700</ele>
<time>2015-08-29T18:43:21Z</time>
</trkpt>
<trkpt lat="42.72835541376291" lon="-8.930537378705802">
<ele>700</ele>
<time>2015-08-29T18:43:23Z</time>
</trkpt>
<trkpt lat="42.72835359525457" lon="-8.93053094334045">
<ele>700</ele>
<time>2015-08-29T18:43:25Z</time>
</trkpt>
<trkpt lat="42.728353365831964" lon="-8.930532546424317">
<ele>700</ele>
<time>2015-08-29T18:43:28Z</time>
</trkpt>
<trkpt lat="42.728353888112984" lon="-8.930534693879135">
<ele>700</ele>
<time>2015-08-29T18:43:30Z</time>
</trkpt>
<trkpt lat="42.728355701889114" lon="-8.930536352601221">
<ele>700</ele>
<time>2015-08-29T18:43:33Z</time>
</trkpt>
<trkpt lat="42.728357478825366" lon="-8.930537040931098">
<ele>700</ele>
<time>2015-08-29T18:43:35Z</time>
</trkpt>
<trkpt lat="42.72835677550153" lon="-8.930534570992133">
<ele>700</ele>
<time>2015-08-29T18:43:37Z</time>
</trkpt>
<trkpt lat="42.728357135820836" lon="-8.930531385786479">
<ele>700</ele>
<time>2015-08-29T18:43:39Z</time>
</trkpt>
<trkpt lat="42.728358980963435" lon="-8.930530126605337">
<ele>700</ele>
<time>2015-08-29T18:43:41Z</time>
</trkpt>
<trkpt lat="42.7283592205231" lon="-8.930528466162652">
<ele>700</ele>
<time>2015-08-29T18:43:43Z</time>
</trkpt>
<trkpt lat="42.72835918307316" lon="-8.930525911331744">
<ele>700</ele>
<time>2015-08-29T18:43:45Z</time>
</trkpt>
<trkpt lat="42.728357338187095" lon="-8.930526481328059">
<ele>700</ele>
<time>2015-08-29T18:43:47Z</time>
</trkpt>
<trkpt lat="42.7283566697865" lon="-8.930524643568763">
<ele>700</ele>
<time>2015-08-29T18:43:49Z</time>
</trkpt>
<trkpt lat="42.72835826355173" lon="-8.93052411479634">
<ele>700</ele>
<time>2015-08-29T18:43:51Z</time>
</trkpt>
<trkpt lat="42.72835861743154" lon="-8.930525703164621">
<ele>700</ele>
<time>2015-08-29T18:43:53Z</time>
</trkpt>
<trkpt lat="42.72835778003293" lon="-8.93052170474875">
<ele>700</ele>
<time>2015-08-29T18:43:55Z</time>
</trkpt>
<trkpt lat="42.72835801326311" lon="-8.930519922073234">
<ele>700</ele>
<time>2015-08-29T18:43:57Z</time>
</trkpt>
<trkpt lat="42.728360779575524" lon="-8.930521731181683">
<ele>700</ele>
<time>2015-08-29T18:43:59Z</time>
</trkpt>
<trkpt lat="42.72836300557604" lon="-8.930523297545855">
<ele>700</ele>
<time>2015-08-29T18:44:01Z</time>
</trkpt>
<trkpt lat="42.72836189549258" lon="-8.93052462022618">
<ele>700</ele>
<time>2015-08-29T18:44:03Z</time>
</trkpt>
<trkpt lat="42.728359519227155" lon="-8.930525251243761">
<ele>700</ele>
<time>2015-08-29T18:44:05Z</time>
</trkpt>
<trkpt lat="42.728358235297954" lon="-8.930528018195927">
<ele>700</ele>
<time>2015-08-29T18:44:07Z</time>
</trkpt>
<trkpt lat="42.72835627506751" lon="-8.930529456983656">
<ele>700</ele>
<time>2015-08-29T18:44:09Z</time>
</trkpt>
<trkpt lat="42.728351675052686" lon="-8.930530898239175">
<ele>700</ele>
<time>2015-08-29T18:44:11Z</time>
</trkpt>
<trkpt lat="42.728351023050685" lon="-8.930532556813803">
<ele>700</ele>
<time>2015-08-29T18:44:14Z</time>
</trkpt>
<trkpt lat="42.72834811973348" lon="-8.93053163859333">
<ele>700</ele>
<time>2015-08-29T18:44:16Z</time>
</trkpt>
<trkpt lat="42.72835129019531" lon="-8.93053115295205">
<ele>700</ele>
<time>2015-08-29T18:44:18Z</time>
</trkpt>
<trkpt lat="42.72835386750278" lon="-8.930531151855456">
<ele>700</ele>
<time>2015-08-29T18:44:20Z</time>
</trkpt>
<trkpt lat="42.728361142572844" lon="-8.93052930608984">
<ele>700</ele>
<time>2015-08-29T18:44:22Z</time>
</trkpt>
<trkpt lat="42.728362401147564" lon="-8.930529448490216">
<ele>700</ele>
<time>2015-08-29T18:44:24Z</time>
</trkpt>
<trkpt lat="42.72836282281016" lon="-8.930533214440553">
<ele>700</ele>
<time>2015-08-29T18:44:26Z</time>
</trkpt>
<trkpt lat="42.728363655974874" lon="-8.930536001835062">
<ele>700</ele>
<time>2015-08-29T18:44:28Z</time>
</trkpt>
<trkpt lat="42.728361862526405" lon="-8.930536997040983">
<ele>700</ele>
<time>2015-08-29T18:44:30Z</time>
</trkpt>
<trkpt lat="42.728362455234866" lon="-8.930537249960755">
<ele>700</ele>
<time>2015-08-29T18:44:32Z</time>
</trkpt>
<trkpt lat="42.728367040293584" lon="-8.930535896639618">
<ele>700</ele>
<time>2015-08-29T18:44:34Z</time>
</trkpt>
<trkpt lat="42.72836347208234" lon="-8.930532507432071">
<ele>700</ele>
<time>2015-08-29T18:44:36Z</time>
</trkpt>
<trkpt lat="42.72835714945969" lon="-8.930529661182218">
<ele>700</ele>
<time>2015-08-29T18:44:38Z</time>
</trkpt>
<trkpt lat="42.728352142304196" lon="-8.930531279815723">
<ele>700</ele>
<time>2015-08-29T18:44:40Z</time>
</trkpt>
<trkpt lat="42.72834935108678" lon="-8.930534400641784">
<ele>700</ele>
<time>2015-08-29T18:44:42Z</time>
</trkpt>
<trkpt lat="42.72834717979365" lon="-8.9305353748905">
<ele>700</ele>
<time>2015-08-29T18:44:44Z</time>
</trkpt>
<trkpt lat="42.72835017612477" lon="-8.930537765890955">
<ele>700</ele>
<time>2015-08-29T18:44:46Z</time>
</trkpt>
<trkpt lat="42.728354316538955" lon="-8.930539593669666">
<ele>700</ele>
<time>2015-08-29T18:44:48Z</time>
</trkpt>
<trkpt lat="42.728357722170486" lon="-8.930537769400846">
<ele>700</ele>
<time>2015-08-29T18:44:50Z</time>
</trkpt>
<trkpt lat="42.72835769187996" lon="-8.93053424081184">
<ele>700</ele>
<time>2015-08-29T18:44:52Z</time>
</trkpt>
<trkpt lat="42.72835838285502" lon="-8.930534045260499">
<ele>700</ele>
<time>2015-08-29T18:44:54Z</time>
</trkpt>
<trkpt lat="42.72835784611459" lon="-8.930535402165626">
<ele>700</ele>
<time>2015-08-29T18:44:56Z</time>
</trkpt>
<trkpt lat="42.72835473022718" lon="-8.93053447947111">
<ele>700</ele>
<time>2015-08-29T18:44:58Z</time>
</trkpt>
<trkpt lat="42.72835439345993" lon="-8.930535461824347">
<ele>700</ele>
<time>2015-08-29T18:45:00Z</time>
</trkpt>
<trkpt lat="42.728355794362194" lon="-8.930538220207895">
<ele>700</ele>
<time>2015-08-29T18:45:02Z</time>
</trkpt>
<trkpt lat="42.72835666050296" lon="-8.93053696976229">
<ele>700</ele>
<time>2015-08-29T18:45:04Z</time>
</trkpt>
<trkpt lat="42.728358541571744" lon="-8.930537782810285">
<ele>700</ele>
<time>2015-08-29T18:45:06Z</time>
</trkpt>
<trkpt lat="42.728359416543924" lon="-8.930535909434907">
<ele>700</ele>
<time>2015-08-29T18:45:08Z</time>
</trkpt>
<trkpt lat="42.72836161362091" lon="-8.930531945606917">
<ele>700</ele>
<time>2015-08-29T18:45:10Z</time>
</trkpt>
<trkpt lat="42.72836710090867" lon="-8.930530712606139">
<ele>700</ele>
<time>2015-08-29T18:45:12Z</time>
</trkpt>
<trkpt lat="42.72836545552461" lon="-8.930533312621815">
<ele>700</ele>
<time>2015-08-29T18:45:14Z</time>
</trkpt>
<trkpt lat="42.728364719167175" lon="-8.930536129729322">
<ele>700</ele>
<time>2015-08-29T18:45:16Z</time>
</trkpt>
<trkpt lat="42.72836169647026" lon="-8.930530989163293">
<ele>700</ele>
<time>2015-08-29T18:45:18Z</time>
</trkpt>
<trkpt lat="42.72835037494317" lon="-8.930527829318372">
<ele>700</ele>
<time>2015-08-29T18:45:20Z</time>
</trkpt>
<trkpt lat="42.728346556722" lon="-8.930533448411728">
<ele>700</ele>
<time>2015-08-29T18:45:22Z</time>
</trkpt>
<trkpt lat="42.72834322122251" lon="-8.93054133610642">
<ele>700</ele>
<time>2015-08-29T18:45:24Z</time>
</trkpt>
<trkpt lat="42.72833988737326" lon="-8.930546467263197">
<ele>700</ele>
<time>2015-08-29T18:45:26Z</time>
</trkpt>
<trkpt lat="42.72833841873798" lon="-8.930546701234439">
<ele>700</ele>
<time>2015-08-29T18:45:28Z</time>
</trkpt>
<trkpt lat="42.72833827468432" lon="-8.930542974767006">
<ele>700</ele>
<time>2015-08-29T18:45:30Z</time>
</trkpt>
<trkpt lat="42.728338430639425" lon="-8.93053916456329">
<ele>700</ele>
<time>2015-08-29T18:45:32Z</time>
</trkpt>
<trkpt lat="42.72834249559999" lon="-8.930535681891508">
<ele>700</ele>
<time>2015-08-29T18:45:34Z</time>
</trkpt>
<trkpt lat="42.72834228510892" lon="-8.93053114096976">
<ele>700</ele>
<time>2015-08-29T18:45:36Z</time>
</trkpt>
<trkpt lat="42.728337733703114" lon="-8.93053199100764">
<ele>700</ele>
<time>2015-08-29T18:45:38Z</time>
</trkpt>
<trkpt lat="42.72833098325948" lon="-8.930536483954057">
<ele>700</ele>
<time>2015-08-29T18:45:40Z</time>
</trkpt>
<trkpt lat="42.72832489587156" lon="-8.930542113763753">
<ele>700</ele>
<time>2015-08-29T18:45:42Z</time>
</trkpt>
<trkpt lat="42.72832078625024" lon="-8.930545465010903">
<ele>700</ele>
<time>2015-08-29T18:45:44Z</time>
</trkpt>
<trkpt lat="42.72832559108533" lon="-8.930544622195473">
<ele>700</ele>
<time>2015-08-29T18:45:46Z</time>
</trkpt>
<trkpt lat="42.72832840306311" lon="-8.93054095341572">
<ele>700</ele>
<time>2015-08-29T18:45:48Z</time>
</trkpt>
<trkpt lat="42.728330988714745" lon="-8.930540711713485">
<ele>700</ele>
<time>2015-08-29T18:45:50Z</time>
</trkpt>
<trkpt lat="42.728334434467655" lon="-8.930541810240284">
<ele>700</ele>
<time>2015-08-29T18:45:52Z</time>
</trkpt>
<trkpt lat="42.72833754262311" lon="-8.930541055721408">
<ele>700</ele>
<time>2015-08-29T18:45:54Z</time>
</trkpt>
<trkpt lat="42.72834028522445" lon="-8.930541093144367">
<ele>700</ele>
<time>2015-08-29T18:45:56Z</time>
</trkpt>
<trkpt lat="42.72834455149134" lon="-8.930541286663281">
<ele>700</ele>
<time>2015-08-29T18:45:58Z</time>
</trkpt>
<trkpt lat="42.7283496800665" lon="-8.93053875477196">
<ele>700</ele>
<time>2015-08-29T18:46:00Z</time>
</trkpt>
<trkpt lat="42.72834577703443" lon="-8.930533816294819">
<ele>700</ele>
<time>2015-08-29T18:46:02Z</time>
</trkpt>
<trkpt lat="42.728341279295236" lon="-8.930531753769014">
<ele>700</ele>
<time>2015-08-29T18:46:04Z</time>
</trkpt>
<trkpt lat="42.72833755397684" lon="-8.93053156211194">
<ele>700</ele>
<time>2015-08-29T18:46:06Z</time>
</trkpt>
<trkpt lat="42.72833472212826" lon="-8.930531969917453">
<ele>700</ele>
<time>2015-08-29T18:46:08Z</time>
</trkpt>
<trkpt lat="42.72833498621194" lon="-8.930534716554913">
<ele>700</ele>
<time>2015-08-29T18:46:10Z</time>
</trkpt>
<trkpt lat="42.728336576388934" lon="-8.930537836114738">
<ele>700</ele>
<time>2015-08-29T18:46:12Z</time>
</trkpt>
<trkpt lat="42.72833978027788" lon="-8.93053797935192">
<ele>700</ele>
<time>2015-08-29T18:46:14Z</time>
</trkpt>
<trkpt lat="42.72834323882023" lon="-8.930531035795239">
<ele>700</ele>
<time>2015-08-29T18:46:16Z</time>
</trkpt>
<trkpt lat="42.728341436572606" lon="-8.930527605160936">
<ele>700</ele>
<time>2015-08-29T18:46:18Z</time>
</trkpt>
<trkpt lat="42.72833878249347" lon="-8.930529861320318">
<ele>700</ele>
<time>2015-08-29T18:46:20Z</time>
</trkpt>
<trkpt lat="42.728336213440336" lon="-8.930532948234436">
<ele>700</ele>
<time>2015-08-29T18:46:22Z</time>
</trkpt>
<trkpt lat="42.72833569437443" lon="-8.930533811918114">
<ele>700</ele>
<time>2015-08-29T18:46:24Z</time>
</trkpt>
<trkpt lat="42.728337592902555" lon="-8.930533449445873">
<ele>700</ele>
<time>2015-08-29T18:46:26Z</time>
</trkpt>
<trkpt lat="42.728343189818965" lon="-8.930534892548405">
<ele>700</ele>
<time>2015-08-29T18:46:28Z</time>
</trkpt>
<trkpt lat="42.7283428088534" lon="-8.930538064908298">
<ele>700</ele>
<time>2015-08-29T18:46:30Z</time>
</trkpt>
<trkpt lat="42.72834338602977" lon="-8.930541634080786">
<ele>700</ele>
<time>2015-08-29T18:46:32Z</time>
</trkpt>
<trkpt lat="42.72834467617982" lon="-8.930545076129757">
<ele>700</ele>
<time>2015-08-29T18:46:34Z</time>
</trkpt>
<trkpt lat="42.72834678637566" lon="-8.93054821917246">
<ele>700</ele>
<time>2015-08-29T18:46:36Z</time>
</trkpt>
<trkpt lat="42.72834976717847" lon="-8.930550947536977">
<ele>700</ele>
<time>2015-08-29T18:46:38Z</time>
</trkpt>
<trkpt lat="42.72834827498524" lon="-8.930551553084321">
<ele>700</ele>
<time>2015-08-29T18:46:40Z</time>
</trkpt>
<trkpt lat="42.72834794454183" lon="-8.930552000285003">
<ele>700</ele>
<time>2015-08-29T18:46:42Z</time>
</trkpt>
<trkpt lat="42.72834430971756" lon="-8.930551832265987">
<ele>700</ele>
<time>2015-08-29T18:46:44Z</time>
</trkpt>
<trkpt lat="42.728343098977945" lon="-8.93055260971295">
<ele>700</ele>
<time>2015-08-29T18:46:46Z</time>
</trkpt>
<trkpt lat="42.728336452547246" lon="-8.930552865224673">
<ele>700</ele>
<time>2015-08-29T18:46:48Z</time>
</trkpt>
<trkpt lat="42.728334031744254" lon="-8.930553635294357">
<ele>700</ele>
<time>2015-08-29T18:46:50Z</time>
</trkpt>
<trkpt lat="42.72833300168242" lon="-8.930554898854462">
<ele>700</ele>
<time>2015-08-29T18:46:52Z</time>
</trkpt>
<trkpt lat="42.72833074925961" lon="-8.930553157576902">
<ele>700</ele>
<time>2015-08-29T18:46:54Z</time>
</trkpt>
<trkpt lat="42.728335657911735" lon="-8.930552780180403">
<ele>700</ele>
<time>2015-08-29T18:46:56Z</time>
</trkpt>
<trkpt lat="42.72833643377259" lon="-8.930554535200162">
<ele>700</ele>
<time>2015-08-29T18:46:58Z</time>
</trkpt>
<trkpt lat="42.728336725629724" lon="-8.930554286733198">
<ele>700</ele>
<time>2015-08-29T18:47:00Z</time>
</trkpt>
<trkpt lat="42.728340182238775" lon="-8.930548694805541">
<ele>700</ele>
<time>2015-08-29T18:47:02Z</time>
</trkpt>
<trkpt lat="42.728338105957064" lon="-8.930548968977854">
<ele>700</ele>
<time>2015-08-29T18:47:04Z</time>
</trkpt>
<trkpt lat="42.728320424252644" lon="-8.930587490985268">
<ele>700</ele>
<time>2015-08-29T18:47:06Z</time>
</trkpt>
<trkpt lat="42.72830179471281" lon="-8.930628329696109">
<ele>700</ele>
<time>2015-08-29T18:47:08Z</time>
</trkpt>
<trkpt lat="42.72828787303245" lon="-8.930659069788364">
<ele>700</ele>
<time>2015-08-29T18:47:10Z</time>
</trkpt>
<trkpt lat="42.72827197525069" lon="-8.9307116399948">
<ele>700</ele>
<time>2015-08-29T18:47:12Z</time>
</trkpt>
<trkpt lat="42.72824482116552" lon="-8.930836194029652">
<ele>699</ele>
<time>2015-08-29T18:47:14Z</time>
</trkpt>
<trkpt lat="42.72820337428002" lon="-8.93100504318467">
<ele>698</ele>
<time>2015-08-29T18:47:16Z</time>
</trkpt>
<trkpt lat="42.72814994825014" lon="-8.931212226933157">
<ele>696</ele>
<time>2015-08-29T18:47:18Z</time>
</trkpt>
<trkpt lat="42.728121688485196" lon="-8.931438559281826">
<ele>693</ele>
<time>2015-08-29T18:47:20Z</time>
</trkpt>
<trkpt lat="42.72809698301024" lon="-8.931609045551012">
<ele>691</ele>
<time>2015-08-29T18:47:22Z</time>
</trkpt>
<trkpt lat="42.72811839686096" lon="-8.931722925167517">
<ele>688</ele>
<time>2015-08-29T18:47:24Z</time>
</trkpt>
<trkpt lat="42.728222407581335" lon="-8.931769815018074">
<ele>684</ele>
<time>2015-08-29T18:47:26Z</time>
</trkpt>
<trkpt lat="42.72840060079945" lon="-8.93170501638671">
<ele>681</ele>
<time>2015-08-29T18:47:28Z</time>
</trkpt>
<trkpt lat="42.72856159233092" lon="-8.931615144386424">
<ele>682</ele>
<time>2015-08-29T18:47:30Z</time>
</trkpt>
<trkpt lat="42.728711966941596" lon="-8.931551407117237">
<ele>683</ele>
<time>2015-08-29T18:47:32Z</time>
</trkpt>
<trkpt lat="42.72884000124913" lon="-8.931503917227916">
<ele>685</ele>
<time>2015-08-29T18:47:34Z</time>
</trkpt>
<trkpt lat="42.7289563475122" lon="-8.931486917834077">
<ele>686</ele>
<time>2015-08-29T18:47:36Z</time>
</trkpt>
<trkpt lat="42.72910014924458" lon="-8.931473682380926">
<ele>687</ele>
<time>2015-08-29T18:47:38Z</time>
</trkpt>
<trkpt lat="42.72923101166789" lon="-8.931523724565999">
<ele>686</ele>
<time>2015-08-29T18:47:40Z</time>
</trkpt>
<trkpt lat="42.72927040897235" lon="-8.931776808513343">
<ele>683</ele>
<time>2015-08-29T18:47:42Z</time>
</trkpt>
<trkpt lat="42.729241936756914" lon="-8.931978056318826">
<ele>681</ele>
<time>2015-08-29T18:47:44Z</time>
</trkpt>
<trkpt lat="42.7291243623333" lon="-8.93206012076757">
<ele>681</ele>
<time>2015-08-29T18:47:46Z</time>
</trkpt>
<trkpt lat="42.728923433759256" lon="-8.93205753632234">
<ele>680</ele>
<time>2015-08-29T18:47:48Z</time>
</trkpt>
<trkpt lat="42.72874325532128" lon="-8.931970811231025">
<ele>679</ele>
<time>2015-08-29T18:47:50Z</time>
</trkpt>
<trkpt lat="42.728589589810284" lon="-8.931872771507367">
<ele>677</ele>
<time>2015-08-29T18:47:52Z</time>
</trkpt>
<trkpt lat="42.72844302373822" lon="-8.931790353459638">
<ele>676</ele>
<time>2015-08-29T18:47:54Z</time>
</trkpt>
<trkpt lat="42.728313800693044" lon="-8.931791054383343">
<ele>674</ele>
<time>2015-08-29T18:47:56Z</time>
</trkpt>
<trkpt lat="42.728176706200756" lon="-8.931891944112634">
<ele>673</ele>
<time>2015-08-29T18:47:58Z</time>
</trkpt>
<trkpt lat="42.72807864042188" lon="-8.932095392939319">
<ele>671</ele>
<time>2015-08-29T18:48:00Z</time>
</trkpt>
<trkpt lat="42.728017773366496" lon="-8.932261007676756">
<ele>668</ele>
<time>2015-08-29T18:48:02Z</time>
</trkpt>
<trkpt lat="42.728043121587255" lon="-8.932388043622684">
<ele>665</ele>
<time>2015-08-29T18:48:04Z</time>
</trkpt>
<trkpt lat="42.728138596494034" lon="-8.932435970437005">
<ele>661</ele>
<time>2015-08-29T18:48:06Z</time>
</trkpt>
<trkpt lat="42.728303511015085" lon="-8.932410740731957">
<ele>658</ele>
<time>2015-08-29T18:48:08Z</time>
</trkpt>
<trkpt lat="42.728450447201766" lon="-8.932331213092597">
<ele>658</ele>
<time>2015-08-29T18:48:10Z</time>
</trkpt>
<trkpt lat="42.72859800570027" lon="-8.932251052141957">
<ele>657</ele>
<time>2015-08-29T18:48:12Z</time>
</trkpt>
<trkpt lat="42.728755553432805" lon="-8.932202838576314">
<ele>659</ele>
<time>2015-08-29T18:48:14Z</time>
</trkpt>
<trkpt lat="42.72888493937178" lon="-8.932192974163149">
<ele>660</ele>
<time>2015-08-29T18:48:16Z</time>
</trkpt>
<trkpt lat="42.728980705621254" lon="-8.932193300232244">
<ele>660</ele>
<time>2015-08-29T18:48:18Z</time>
</trkpt>
<trkpt lat="42.729113574931226" lon="-8.932130942208351">
<ele>660</ele>
<time>2015-08-29T18:48:20Z</time>
</trkpt>
<trkpt lat="42.72926566601264" lon="-8.932136780348642">
<ele>660</ele>
<time>2015-08-29T18:48:22Z</time>
</trkpt>
<trkpt lat="42.72936169060879" lon="-8.932332780324085">
<ele>659</ele>
<time>2015-08-29T18:48:24Z</time>
</trkpt>
<trkpt lat="42.72926296939276" lon="-8.932525627459112">
<ele>660</ele>
<time>2015-08-29T18:48:26Z</time>
</trkpt>
<trkpt lat="42.72905637138603" lon="-8.932540699936727">
<ele>659</ele>
<time>2015-08-29T18:48:28Z</time>
</trkpt>
<trkpt lat="42.72885558377919" lon="-8.932397186663435">
<ele>658</ele>
<time>2015-08-29T18:48:30Z</time>
</trkpt>
<trkpt lat="42.72873207516938" lon="-8.932262449535576">
<ele>657</ele>
<time>2015-08-29T18:48:32Z</time>
</trkpt>
<trkpt lat="42.728611890669455" lon="-8.932168111909098">
<ele>656</ele>
<time>2015-08-29T18:48:34Z</time>
</trkpt>
<trkpt lat="42.72852044040716" lon="-8.932147003606504">
<ele>651</ele>
<time>2015-08-29T18:48:36Z</time>
</trkpt>
<trkpt lat="42.72847768113243" lon="-8.932241983954299">
<ele>650</ele>
<time>2015-08-29T18:48:38Z</time>
</trkpt>
<trkpt lat="42.72850871111537" lon="-8.932399064017654">
<ele>645</ele>
<time>2015-08-29T18:48:40Z</time>
</trkpt>
<trkpt lat="42.72858119253089" lon="-8.932568081464206">
<ele>642</ele>
<time>2015-08-29T18:48:42Z</time>
</trkpt>
<trkpt lat="42.728681517911745" lon="-8.932706811071753">
<ele>639</ele>
<time>2015-08-29T18:48:44Z</time>
</trkpt>
<trkpt lat="42.72879990987942" lon="-8.932856492747923">
<ele>636</ele>
<time>2015-08-29T18:48:46Z</time>
</trkpt>
<trkpt lat="42.72891306151124" lon="-8.933005897265584">
<ele>635</ele>
<time>2015-08-29T18:48:48Z</time>
</trkpt>
<trkpt lat="42.72897620785405" lon="-8.933124394899444">
<ele>636</ele>
<time>2015-08-29T18:48:50Z</time>
</trkpt>
<trkpt lat="42.7290544820343" lon="-8.933171464011176">
<ele>638</ele>
<time>2015-08-29T18:48:52Z</time>
</trkpt>
<trkpt lat="42.729185251101704" lon="-8.933201891963535">
<ele>639</ele>
<time>2015-08-29T18:48:54Z</time>
</trkpt>
<trkpt lat="42.72933179174588" lon="-8.933237329102496">
<ele>639</ele>
<time>2015-08-29T18:48:56Z</time>
</trkpt>
<trkpt lat="42.72939301643578" lon="-8.933412557460914">
<ele>640</ele>
<time>2015-08-29T18:48:58Z</time>
</trkpt>
<trkpt lat="42.72929407115659" lon="-8.933595399005695">
<ele>641</ele>
<time>2015-08-29T18:49:00Z</time>
</trkpt>
<trkpt lat="42.729087370630474" lon="-8.933611495147128">
<ele>641</ele>
<time>2015-08-29T18:49:02Z</time>
</trkpt>
<trkpt lat="42.72892082973286" lon="-8.933485281036237">
<ele>641</ele>
<time>2015-08-29T18:49:04Z</time>
</trkpt>
<trkpt lat="42.72880889705021" lon="-8.933344598597822">
<ele>640</ele>
<time>2015-08-29T18:49:06Z</time>
</trkpt>
<trkpt lat="42.728665235328926" lon="-8.93331652502713">
<ele>638</ele>
<time>2015-08-29T18:49:08Z</time>
</trkpt>
<trkpt lat="42.72851876386207" lon="-8.933364299202484">
<ele>633</ele>
<time>2015-08-29T18:49:10Z</time>
</trkpt>
<trkpt lat="42.72845559240307" lon="-8.93356111528952">
<ele>631</ele>
<time>2015-08-29T18:49:12Z</time>
</trkpt>
<trkpt lat="42.728498320409685" lon="-8.933735709246612">
<ele>626</ele>
<time>2015-08-29T18:49:14Z</time>
</trkpt>
<trkpt lat="42.72859399200648" lon="-8.933865210924777">
<ele>624</ele>
<time>2015-08-29T18:49:16Z</time>
</trkpt>
<trkpt lat="42.72871309530764" lon="-8.93396935222622">
<ele>623</ele>
<time>2015-08-29T18:49:18Z</time>
</trkpt>
<trkpt lat="42.728826277630965" lon="-8.934075817060553">
<ele>621</ele>
<time>2015-08-29T18:49:20Z</time>
</trkpt>
<trkpt lat="42.728952222681556" lon="-8.93417451277309">
<ele>620</ele>
<time>2015-08-29T18:49:22Z</time>
</trkpt>
<trkpt lat="42.72908425506996" lon="-8.934248547241658">
<ele>619</ele>
<time>2015-08-29T18:49:24Z</time>
</trkpt>
<trkpt lat="42.729222734695156" lon="-8.934327845599885">
<ele>618</ele>
<time>2015-08-29T18:49:26Z</time>
</trkpt>
<trkpt lat="42.729358379016766" lon="-8.934394318261523">
<ele>617</ele>
<time>2015-08-29T18:49:28Z</time>
</trkpt>
<trkpt lat="42.72949396685357" lon="-8.934473666848126">
<ele>616</ele>
<time>2015-08-29T18:49:30Z</time>
</trkpt>
<trkpt lat="42.7296145514987" lon="-8.93459057291444">
<ele>615</ele>
<time>2015-08-29T18:49:32Z</time>
</trkpt>
<trkpt lat="42.72972838556645" lon="-8.934710566987144">
<ele>613</ele>
<time>2015-08-29T18:49:34Z</time>
</trkpt>
<trkpt lat="42.72984390946414" lon="-8.934827617767539">
<ele>612</ele>
<time>2015-08-29T18:49:36Z</time>
</trkpt>
<trkpt lat="42.72995264184383" lon="-8.934943290336362">
<ele>611</ele>
<time>2015-08-29T18:49:38Z</time>
</trkpt>
<trkpt lat="42.730057041848546" lon="-8.935040157118687">
<ele>609</ele>
<time>2015-08-29T18:49:40Z</time>
</trkpt>
<trkpt lat="42.73018629921055" lon="-8.935156920638052">
<ele>607</ele>
<time>2015-08-29T18:49:42Z</time>
</trkpt>
<trkpt lat="42.73030538666383" lon="-8.935288542685761">
<ele>605</ele>
<time>2015-08-29T18:49:44Z</time>
</trkpt>
<trkpt lat="42.7304203211686" lon="-8.935411857863132">
<ele>603</ele>
<time>2015-08-29T18:49:46Z</time>
</trkpt>
<trkpt lat="42.730519486792815" lon="-8.935515563157722">
<ele>600</ele>
<time>2015-08-29T18:49:48Z</time>
</trkpt>
<trkpt lat="42.73061050193651" lon="-8.935605478526838">
<ele>596</ele>
<time>2015-08-29T18:49:50Z</time>
</trkpt>
<trkpt lat="42.73077069779311" lon="-8.93571726818084">
<ele>592</ele>
<time>2015-08-29T18:49:52Z</time>
</trkpt>
<trkpt lat="42.73090412649826" lon="-8.935886822462919">
<ele>589</ele>
<time>2015-08-29T18:49:54Z</time>
</trkpt>
<trkpt lat="42.73098484302031" lon="-8.93617720012902">
<ele>589</ele>
<time>2015-08-29T18:49:56Z</time>
</trkpt>
<trkpt lat="42.73098614978943" lon="-8.936351467111077">
<ele>589</ele>
<time>2015-08-29T18:49:58Z</time>
</trkpt>
<trkpt lat="42.731055855709734" lon="-8.936487732606595">
<ele>588</ele>
<time>2015-08-29T18:50:00Z</time>
</trkpt>
<trkpt lat="42.73120631834675" lon="-8.936501219250466">
<ele>584</ele>
<time>2015-08-29T18:50:02Z</time>
</trkpt>
<trkpt lat="42.731291429872925" lon="-8.936287237345011">
<ele>581</ele>
<time>2015-08-29T18:50:04Z</time>
</trkpt>
<trkpt lat="42.73133148072341" lon="-8.936017365406524">
<ele>579</ele>
<time>2015-08-29T18:50:06Z</time>
</trkpt>
<trkpt lat="42.73130448017086" lon="-8.935789799575499">
<ele>578</ele>
<time>2015-08-29T18:50:08Z</time>
</trkpt>
<trkpt lat="42.73123094324296" lon="-8.935599827169371">
<ele>577</ele>
<time>2015-08-29T18:50:10Z</time>
</trkpt>
<trkpt lat="42.73107508240667" lon="-8.935516754654516">
<ele>577</ele>
<time>2015-08-29T18:50:12Z</time>
</trkpt>
<trkpt lat="42.73092225106142" lon="-8.935562110974766">
<ele>575</ele>
<time>2015-08-29T18:50:14Z</time>
</trkpt>
<trkpt lat="42.73076295813205" lon="-8.935563193463977">
<ele>573</ele>
<time>2015-08-29T18:50:16Z</time>
</trkpt>
<trkpt lat="42.730604403730716" lon="-8.935475128929554">
<ele>573</ele>
<time>2015-08-29T18:50:18Z</time>
</trkpt>
<trkpt lat="42.730469670158506" lon="-8.93549192356631">
<ele>572</ele>
<time>2015-08-29T18:50:20Z</time>
</trkpt>
<trkpt lat="42.73042317971756" lon="-8.935654364407995">
<ele>572</ele>
<time>2015-08-29T18:50:22Z</time>
</trkpt>
<trkpt lat="42.73048276733194" lon="-8.93584862366913">
<ele>571</ele>
<time>2015-08-29T18:50:24Z</time>
</trkpt>
<trkpt lat="42.730671179374" lon="-8.935834505769726">
<ele>572</ele>
<time>2015-08-29T18:50:26Z</time>
</trkpt>
<trkpt lat="42.73086675835806" lon="-8.93573146858472">
<ele>572</ele>
<time>2015-08-29T18:50:28Z</time>
</trkpt>
<trkpt lat="42.7310088936414" lon="-8.93565173008833">
<ele>571</ele>
<time>2015-08-29T18:50:30Z</time>
</trkpt>
<trkpt lat="42.73108591719105" lon="-8.93545156260697">
<ele>570</ele>
<time>2015-08-29T18:50:32Z</time>
</trkpt>
<trkpt lat="42.731037773169895" lon="-8.935131644608393">
<ele>567</ele>
<time>2015-08-29T18:50:34Z</time>
</trkpt>
<trkpt lat="42.73079872480298" lon="-8.935037892981919">
<ele>565</ele>
<time>2015-08-29T18:50:36Z</time>
</trkpt>
<trkpt lat="42.73064695712749" lon="-8.935092846665816">
<ele>563</ele>
<time>2015-08-29T18:50:38Z</time>
</trkpt>
<trkpt lat="42.730585161824614" lon="-8.935235117112855">
<ele>564</ele>
<time>2015-08-29T18:50:40Z</time>
</trkpt>
<trkpt lat="42.73060887935549" lon="-8.935442179416633">
<ele>565</ele>
<time>2015-08-29T18:50:42Z</time>
</trkpt>
<trkpt lat="42.73065519357979" lon="-8.935698494162537">
<ele>567</ele>
<time>2015-08-29T18:50:44Z</time>
</trkpt>
<trkpt lat="42.73057319863096" lon="-8.935854997011603">
<ele>569</ele>
<time>2015-08-29T18:50:46Z</time>
</trkpt>
<trkpt lat="42.73041071048645" lon="-8.935762895497575">
<ele>572</ele>
<time>2015-08-29T18:50:48Z</time>
</trkpt>
<trkpt lat="42.73039039886554" lon="-8.935494104151232">
<ele>574</ele>
<time>2015-08-29T18:50:50Z</time>
</trkpt>
<trkpt lat="42.73051992979874" lon="-8.935319534483403">
<ele>575</ele>
<time>2015-08-29T18:50:52Z</time>
</trkpt>
<trkpt lat="42.73069543892939" lon="-8.935381254591944">
<ele>574</ele>
<time>2015-08-29T18:50:54Z</time>
</trkpt>
<trkpt lat="42.73076385680143" lon="-8.935569900046088">
<ele>573</ele>
<time>2015-08-29T18:50:56Z</time>
</trkpt>
<trkpt lat="42.73067335334421" lon="-8.935681670613393">
<ele>573</ele>
<time>2015-08-29T18:50:58Z</time>
</trkpt>
<trkpt lat="42.73052198717897" lon="-8.93573810778553">
<ele>573</ele>
<time>2015-08-29T18:51:00Z</time>
</trkpt>
<trkpt lat="42.730417921299676" lon="-8.935750868650324">
<ele>573</ele>
<time>2015-08-29T18:51:02Z</time>
</trkpt>
<trkpt lat="42.730312390647505" lon="-8.935783280609328">
<ele>572</ele>
<time>2015-08-29T18:51:04Z</time>
</trkpt>
<trkpt lat="42.73024908417314" lon="-8.935858807333844">
<ele>572</ele>
<time>2015-08-29T18:51:06Z</time>
</trkpt>
<trkpt lat="42.73034190973144" lon="-8.93600771548602">
<ele>568</ele>
<time>2015-08-29T18:51:08Z</time>
</trkpt>
<trkpt lat="42.730563816485436" lon="-8.935918029409573">
<ele>563</ele>
<time>2015-08-29T18:51:10Z</time>
</trkpt>
<trkpt lat="42.73073218556434" lon="-8.93573267227667">
<ele>559</ele>
<time>2015-08-29T18:51:12Z</time>
</trkpt>
<trkpt lat="42.730804429033896" lon="-8.935563407834529">
<ele>558</ele>
<time>2015-08-29T18:51:14Z</time>
</trkpt>
<trkpt lat="42.73080942828982" lon="-8.935317789867465">
<ele>557</ele>
<time>2015-08-29T18:51:16Z</time>
</trkpt>
<trkpt lat="42.73073438814357" lon="-8.93507109308358">
<ele>557</ele>
<time>2015-08-29T18:51:18Z</time>
</trkpt>
<trkpt lat="42.73057490774238" lon="-8.935087183333215">
<ele>556</ele>
<time>2015-08-29T18:51:20Z</time>
</trkpt>
<trkpt lat="42.73048136997152" lon="-8.935256619390287">
<ele>555</ele>
<time>2015-08-29T18:51:22Z</time>
</trkpt>
<trkpt lat="42.730517698393946" lon="-8.935561917946822">
<ele>554</ele>
<time>2015-08-29T18:51:24Z</time>
</trkpt>
<trkpt lat="42.73057204426044" lon="-8.935753058737967">
<ele>554</ele>
<time>2015-08-29T18:51:26Z</time>
</trkpt>
<trkpt lat="42.730688438191116" lon="-8.935810666163393">
<ele>553</ele>
<time>2015-08-29T18:51:28Z</time>
</trkpt>
<trkpt lat="42.730847148302395" lon="-8.935683392786611">
<ele>555</ele>
<time>2015-08-29T18:51:30Z</time>
</trkpt>
<trkpt lat="42.730996063012064" lon="-8.935638129115755">
<ele>557</ele>
<time>2015-08-29T18:51:32Z</time>
</trkpt>
<trkpt lat="42.731117513583875" lon="-8.935780340183419">
<ele>557</ele>
<time>2015-08-29T18:51:34Z</time>
</trkpt>
<trkpt lat="42.73114559502057" lon="-8.935993574446865">
<ele>555</ele>
<time>2015-08-29T18:51:36Z</time>
</trkpt>
<trkpt lat="42.731184202447814" lon="-8.93615768683882">
<ele>553</ele>
<time>2015-08-29T18:51:38Z</time>
</trkpt>
<trkpt lat="42.73123527309277" lon="-8.936325072606442">
<ele>551</ele>
<time>2015-08-29T18:51:40Z</time>
</trkpt>
<trkpt lat="42.73133383265512" lon="-8.93663754149341">
<ele>550</ele>
<time>2015-08-29T18:51:43Z</time>
</trkpt>
<trkpt lat="42.73134400954194" lon="-8.93676938766177">
<ele>550</ele>
<time>2015-08-29T18:51:45Z</time>
</trkpt>
<trkpt lat="42.73125220961284" lon="-8.936869340462705">
<ele>550</ele>
<time>2015-08-29T18:51:47Z</time>
</trkpt>
<trkpt lat="42.73116120997075" lon="-8.936942096747929">
<ele>550</ele>
<time>2015-08-29T18:51:49Z</time>
</trkpt>
<trkpt lat="42.73122445359727" lon="-8.937066145109766">
<ele>548</ele>
<time>2015-08-29T18:51:51Z</time>
</trkpt>
<trkpt lat="42.73139260134911" lon="-8.937032400493287">
<ele>544</ele>
<time>2015-08-29T18:51:53Z</time>
</trkpt>
<trkpt lat="42.73152224086655" lon="-8.936889823976449">
<ele>542</ele>
<time>2015-08-29T18:51:55Z</time>
</trkpt>
<trkpt lat="42.73158648192488" lon="-8.936668199476035">
<ele>543</ele>
<time>2015-08-29T18:51:57Z</time>
</trkpt>
<trkpt lat="42.73172451185842" lon="-8.93654832321557">
<ele>545</ele>
<time>2015-08-29T18:51:59Z</time>
</trkpt>
<trkpt lat="42.73187460174988" lon="-8.936649214880712">
<ele>545</ele>
<time>2015-08-29T18:52:01Z</time>
</trkpt>
<trkpt lat="42.731901053693285" lon="-8.93687668722019">
<ele>544</ele>
<time>2015-08-29T18:52:03Z</time>
</trkpt>
<trkpt lat="42.73186342696934" lon="-8.937076810598652">
<ele>540</ele>
<time>2015-08-29T18:52:05Z</time>
</trkpt>
<trkpt lat="42.73187366612357" lon="-8.937224397067453">
<ele>534</ele>
<time>2015-08-29T18:52:07Z</time>
</trkpt>
<trkpt lat="42.73189527165796" lon="-8.937380266325299">
<ele>530</ele>
<time>2015-08-29T18:52:09Z</time>
</trkpt>
<trkpt lat="42.73192230357325" lon="-8.937539031526759">
<ele>527</ele>
<time>2015-08-29T18:52:11Z</time>
</trkpt>
<trkpt lat="42.73196112681935" lon="-8.937709610108937">
<ele>525</ele>
<time>2015-08-29T18:52:13Z</time>
</trkpt>
<trkpt lat="42.73199782830586" lon="-8.937885736257854">
<ele>525</ele>
<time>2015-08-29T18:52:15Z</time>
</trkpt>
<trkpt lat="42.73203220927393" lon="-8.93806968271856">
<ele>524</ele>
<time>2015-08-29T18:52:17Z</time>
</trkpt>
<trkpt lat="42.732082355464684" lon="-8.938269670124987">
<ele>523</ele>
<time>2015-08-29T18:52:19Z</time>
</trkpt>
<trkpt lat="42.732134304490046" lon="-8.938469496519637">
<ele>522</ele>
<time>2015-08-29T18:52:21Z</time>
</trkpt>
<trkpt lat="42.73217679435911" lon="-8.938649405469054">
<ele>520</ele>
<time>2015-08-29T18:52:23Z</time>
</trkpt>
<trkpt lat="42.73219534718458" lon="-8.938794810555587">
<ele>519</ele>
<time>2015-08-29T18:52:25Z</time>
</trkpt>
<trkpt lat="42.73217439741282" lon="-8.939012709521279">
<ele>519</ele>
<time>2015-08-29T18:52:27Z</time>
</trkpt>
<trkpt lat="42.732109200481" lon="-8.93919354695332">
<ele>519</ele>
<time>2015-08-29T18:52:29Z</time>
</trkpt>
<trkpt lat="42.73214531299369" lon="-8.939294375270839">
<ele>518</ele>
<time>2015-08-29T18:52:31Z</time>
</trkpt>
<trkpt lat="42.732273222522196" lon="-8.93937088519837">
<ele>516</ele>
<time>2015-08-29T18:52:33Z</time>
</trkpt>
<trkpt lat="42.732417161557464" lon="-8.939404431383688">
<ele>515</ele>
<time>2015-08-29T18:52:35Z</time>
</trkpt>
<trkpt lat="42.73254618536873" lon="-8.939500961006635">
<ele>515</ele>
<time>2015-08-29T18:52:37Z</time>
</trkpt>
<trkpt lat="42.73264535292486" lon="-8.939669510035625">
<ele>513</ele>
<time>2015-08-29T18:52:39Z</time>
</trkpt>
<trkpt lat="42.73275069802737" lon="-8.939848530001067">
<ele>511</ele>
<time>2015-08-29T18:52:41Z</time>
</trkpt>
<trkpt lat="42.732835600219296" lon="-8.940034972031686">
<ele>508</ele>
<time>2015-08-29T18:52:43Z</time>
</trkpt>
<trkpt lat="42.73289957711012" lon="-8.940213411560174">
<ele>506</ele>
<time>2015-08-29T18:52:45Z</time>
</trkpt>
<trkpt lat="42.73295173847526" lon="-8.940396311702717">
<ele>505</ele>
<time>2015-08-29T18:52:47Z</time>
</trkpt>
<trkpt lat="42.73300264260665" lon="-8.9405814638131">
<ele>504</ele>
<time>2015-08-29T18:52:49Z</time>
</trkpt>
<trkpt lat="42.733056886081194" lon="-8.940785876577527">
<ele>502</ele>
<time>2015-08-29T18:52:51Z</time>
</trkpt>
<trkpt lat="42.7330848378411" lon="-8.940973936113972">
<ele>501</ele>
<time>2015-08-29T18:52:53Z</time>
</trkpt>
<trkpt lat="42.73310074265739" lon="-8.94114766304814">
<ele>499</ele>
<time>2015-08-29T18:52:55Z</time>
</trkpt>
<trkpt lat="42.73316214973181" lon="-8.941319000305832">
<ele>497</ele>
<time>2015-08-29T18:52:57Z</time>
</trkpt>
<trkpt lat="42.733247760432924" lon="-8.94149698385505">
<ele>497</ele>
<time>2015-08-29T18:52:59Z</time>
</trkpt>
<trkpt lat="42.73330068110413" lon="-8.941627718061">
<ele>497</ele>
<time>2015-08-29T18:53:01Z</time>
</trkpt>
<trkpt lat="42.73336021995909" lon="-8.94175185944702">
<ele>497</ele>
<time>2015-08-29T18:53:03Z</time>
</trkpt>
<trkpt lat="42.733424588823695" lon="-8.941892380313954">
<ele>496</ele>
<time>2015-08-29T18:53:05Z</time>
</trkpt>
<trkpt lat="42.733485273040365" lon="-8.9420373761066">
<ele>496</ele>
<time>2015-08-29T18:53:07Z</time>
</trkpt>
<trkpt lat="42.73355749381405" lon="-8.942185189827665">
<ele>496</ele>
<time>2015-08-29T18:53:09Z</time>
</trkpt>
<trkpt lat="42.73362939075977" lon="-8.942327757453082">
<ele>495</ele>
<time>2015-08-29T18:53:11Z</time>
</trkpt>
<trkpt lat="42.733709952943386" lon="-8.942486921078675">
<ele>493</ele>
<time>2015-08-29T18:53:13Z</time>
</trkpt>
<trkpt lat="42.733778801637975" lon="-8.942724016274436">
<ele>492</ele>
<time>2015-08-29T18:53:15Z</time>
</trkpt>
<trkpt lat="42.73380437895701" lon="-8.94292853416178">
<ele>491</ele>
<time>2015-08-29T18:53:17Z</time>
</trkpt>
<trkpt lat="42.733861818276175" lon="-8.94310861735772">
<ele>489</ele>
<time>2015-08-29T18:53:19Z</time>
</trkpt>
<trkpt lat="42.73393844049426" lon="-8.943302254436723">
<ele>487</ele>
<time>2015-08-29T18:53:21Z</time>
</trkpt>
<trkpt lat="42.73401492327994" lon="-8.943477145385515">
<ele>485</ele>
<time>2015-08-29T18:53:23Z</time>
</trkpt>
<trkpt lat="42.7341118748704" lon="-8.943663149568325">
<ele>485</ele>
<time>2015-08-29T18:53:25Z</time>
</trkpt>
<trkpt lat="42.734209110180174" lon="-8.94384182153647">
<ele>484</ele>
<time>2015-08-29T18:53:27Z</time>
</trkpt>
<trkpt lat="42.73430303549475" lon="-8.944037526248147">
<ele>482</ele>
<time>2015-08-29T18:53:28Z</time>
</trkpt>
<trkpt lat="42.73437665609908" lon="-8.944219478685701">
<ele>478</ele>
<time>2015-08-29T18:53:30Z</time>
</trkpt>
<trkpt lat="42.734448227381584" lon="-8.944392413533278">
<ele>475</ele>
<time>2015-08-29T18:53:32Z</time>
</trkpt>
<trkpt lat="42.734534818469626" lon="-8.944577147864775">
<ele>472</ele>
<time>2015-08-29T18:53:34Z</time>
</trkpt>
<trkpt lat="42.73462465161216" lon="-8.9447632209627">
<ele>469</ele>
<time>2015-08-29T18:53:36Z</time>
</trkpt>
<trkpt lat="42.73471313532264" lon="-8.944942663517338">
<ele>467</ele>
<time>2015-08-29T18:53:38Z</time>
</trkpt>
<trkpt lat="42.73479445671036" lon="-8.94512060083488">
<ele>465</ele>
<time>2015-08-29T18:53:40Z</time>
</trkpt>
<trkpt lat="42.734873924026836" lon="-8.945307239040998">
<ele>463</ele>
<time>2015-08-29T18:53:42Z</time>
</trkpt>
<trkpt lat="42.73494355726769" lon="-8.945475839063079">
<ele>461</ele>
<time>2015-08-29T18:53:44Z</time>
</trkpt>
<trkpt lat="42.73502113743118" lon="-8.945677980975178">
<ele>459</ele>
<time>2015-08-29T18:53:46Z</time>
</trkpt>
<trkpt lat="42.73510633089171" lon="-8.945897824158905">
<ele>457</ele>
<time>2015-08-29T18:53:48Z</time>
</trkpt>
<trkpt lat="42.73516811583576" lon="-8.946076995949598">
<ele>456</ele>
<time>2015-08-29T18:53:50Z</time>
</trkpt>
<trkpt lat="42.73522097621746" lon="-8.946267112666762">
<ele>453</ele>
<time>2015-08-29T18:53:52Z</time>
</trkpt>
<trkpt lat="42.73528623980672" lon="-8.946492648303614">
<ele>449</ele>
<time>2015-08-29T18:53:54Z</time>
</trkpt>
<trkpt lat="42.73535553452998" lon="-8.94666991090622">
<ele>447</ele>
<time>2015-08-29T18:53:56Z</time>
</trkpt>
<trkpt lat="42.73542528346177" lon="-8.946846303297542">
<ele>444</ele>
<time>2015-08-29T18:53:58Z</time>
</trkpt>
<trkpt lat="42.73551924285448" lon="-8.947051156148289">
<ele>441</ele>
<time>2015-08-29T18:54:00Z</time>
</trkpt>
<trkpt lat="42.73561047324727" lon="-8.947257320990804">
<ele>438</ele>
<time>2015-08-29T18:54:02Z</time>
</trkpt>
<trkpt lat="42.73568731657352" lon="-8.947431642451631">
<ele>436</ele>
<time>2015-08-29T18:54:04Z</time>
</trkpt>
<trkpt lat="42.73578084471567" lon="-8.947616277790518">
<ele>433</ele>
<time>2015-08-29T18:54:06Z</time>
</trkpt>
<trkpt lat="42.73588465221384" lon="-8.947792318468299">
<ele>430</ele>
<time>2015-08-29T18:54:08Z</time>
</trkpt>
<trkpt lat="42.73600726537293" lon="-8.947960185126236">
<ele>427</ele>
<time>2015-08-29T18:54:10Z</time>
</trkpt>
<trkpt lat="42.73613604458695" lon="-8.94812759981474">
<ele>425</ele>
<time>2015-08-29T18:54:12Z</time>
</trkpt>
<trkpt lat="42.73625960366703" lon="-8.948307096493116">
<ele>423</ele>
<time>2015-08-29T18:54:14Z</time>
</trkpt>
<trkpt lat="42.73636827597603" lon="-8.948483796200684">
<ele>421</ele>
<time>2015-08-29T18:54:16Z</time>
</trkpt>
<trkpt lat="42.73644134961045" lon="-8.948637468192501">
<ele>418</ele>
<time>2015-08-29T18:54:18Z</time>
</trkpt>
<trkpt lat="42.736532016258" lon="-8.948812224028144">
<ele>414</ele>
<time>2015-08-29T18:54:20Z</time>
</trkpt>
<trkpt lat="42.73663913144778" lon="-8.948992991298976">
<ele>411</ele>
<time>2015-08-29T18:54:22Z</time>
</trkpt>
<trkpt lat="42.73675834697615" lon="-8.949163911857278">
<ele>408</ele>
<time>2015-08-29T18:54:24Z</time>
</trkpt>
<trkpt lat="42.73688102545728" lon="-8.949336649924263">
<ele>405</ele>
<time>2015-08-29T18:54:26Z</time>
</trkpt>
<trkpt lat="42.736994693585785" lon="-8.949521912038872">
<ele>402</ele>
<time>2015-08-29T18:54:28Z</time>
</trkpt>
<trkpt lat="42.73709684873971" lon="-8.949706097944357">
<ele>399</ele>
<time>2015-08-29T18:54:30Z</time>
</trkpt>
<trkpt lat="42.737204157199386" lon="-8.94990009752929">
<ele>397</ele>
<time>2015-08-29T18:54:32Z</time>
</trkpt>
<trkpt lat="42.73731171711437" lon="-8.950102197519598">
<ele>395</ele>
<time>2015-08-29T18:54:34Z</time>
</trkpt>
<trkpt lat="42.73740117949024" lon="-8.950289521777368">
<ele>392</ele>
<time>2015-08-29T18:54:36Z</time>
</trkpt>
<trkpt lat="42.73745970106076" lon="-8.950465016608284">
<ele>390</ele>
<time>2015-08-29T18:54:38Z</time>
</trkpt>
<trkpt lat="42.73751901680937" lon="-8.950647562485">
<ele>387</ele>
<time>2015-08-29T18:54:40Z</time>
</trkpt>
<trkpt lat="42.737611053152925" lon="-8.950841084331687">
<ele>384</ele>
<time>2015-08-29T18:54:42Z</time>
</trkpt>
<trkpt lat="42.737741723705504" lon="-8.951107655141318">
<ele>380</ele>
<time>2015-08-29T18:54:45Z</time>
</trkpt>
<trkpt lat="42.73782600859496" lon="-8.951296263507281">
<ele>378</ele>
<time>2015-08-29T18:54:47Z</time>
</trkpt>
<trkpt lat="42.73792147805015" lon="-8.951492049264308">
<ele>376</ele>
<time>2015-08-29T18:54:49Z</time>
</trkpt>
<trkpt lat="42.73800661482748" lon="-8.951678727403218">
<ele>373</ele>
<time>2015-08-29T18:54:51Z</time>
</trkpt>
<trkpt lat="42.738088273499116" lon="-8.95186695620893">
<ele>371</ele>
<time>2015-08-29T18:54:53Z</time>
</trkpt>
<trkpt lat="42.738172196038626" lon="-8.95205669045048">
<ele>369</ele>
<time>2015-08-29T18:54:55Z</time>
</trkpt>
<trkpt lat="42.73827002425918" lon="-8.952251343644802">
<ele>366</ele>
<time>2015-08-29T18:54:57Z</time>
</trkpt>
<trkpt lat="42.73836437301857" lon="-8.952448587247247">
<ele>365</ele>
<time>2015-08-29T18:54:59Z</time>
</trkpt>
<trkpt lat="42.738438499063655" lon="-8.952640094705378">
<ele>363</ele>
<time>2015-08-29T18:55:01Z</time>
</trkpt>
<trkpt lat="42.738506058032904" lon="-8.952825532142517">
<ele>361</ele>
<time>2015-08-29T18:55:03Z</time>
</trkpt>
<trkpt lat="42.738579422589126" lon="-8.953022739704963">
<ele>359</ele>
<time>2015-08-29T18:55:05Z</time>
</trkpt>
<trkpt lat="42.73864985667172" lon="-8.953212602327019">
<ele>357</ele>
<time>2015-08-29T18:55:07Z</time>
</trkpt>
<trkpt lat="42.73871850891528" lon="-8.953405670395517">
<ele>354</ele>
<time>2015-08-29T18:55:09Z</time>
</trkpt>
<trkpt lat="42.738789516482726" lon="-8.953606106805555">
<ele>351</ele>
<time>2015-08-29T18:55:11Z</time>
</trkpt>
<trkpt lat="42.73886201978029" lon="-8.953799502957802">
<ele>348</ele>
<time>2015-08-29T18:55:13Z</time>
</trkpt>
<trkpt lat="42.73893727079567" lon="-8.953979305130835">
<ele>346</ele>
<time>2015-08-29T18:55:15Z</time>
</trkpt>
<trkpt lat="42.73902326585055" lon="-8.954166259917997">
<ele>343</ele>
<time>2015-08-29T18:55:17Z</time>
</trkpt>
<trkpt lat="42.73911291348412" lon="-8.954349278249124">
<ele>341</ele>
<time>2015-08-29T18:55:19Z</time>
</trkpt>
<trkpt lat="42.73920293969922" lon="-8.95451859805351">
<ele>339</ele>
<time>2015-08-29T18:55:21Z</time>
</trkpt>
<trkpt lat="42.73930591444073" lon="-8.95469781079502">
<ele>336</ele>
<time>2015-08-29T18:55:23Z</time>
</trkpt>
<trkpt lat="42.73939932045272" lon="-8.954882339757374">
<ele>334</ele>
<time>2015-08-29T18:55:25Z</time>
</trkpt>
<trkpt lat="42.73948831396636" lon="-8.955076661040572">
<ele>333</ele>
<time>2015-08-29T18:55:27Z</time>
</trkpt>
<trkpt lat="42.73958745189801" lon="-8.955253939825132">
<ele>331</ele>
<time>2015-08-29T18:55:29Z</time>
</trkpt>
<trkpt lat="42.73968123373157" lon="-8.955393621226621">
<ele>329</ele>
<time>2015-08-29T18:55:31Z</time>
</trkpt>
<trkpt lat="42.73978566177188" lon="-8.955561547736867">
<ele>327</ele>
<time>2015-08-29T18:55:33Z</time>
</trkpt>
<trkpt lat="42.739880864134534" lon="-8.955721617578028">
<ele>325</ele>
<time>2015-08-29T18:55:35Z</time>
</trkpt>
<trkpt lat="42.73997821193994" lon="-8.955871159367451">
<ele>324</ele>
<time>2015-08-29T18:55:37Z</time>
</trkpt>
<trkpt lat="42.74008372271054" lon="-8.95603655816985">
<ele>324</ele>
<time>2015-08-29T18:55:39Z</time>
</trkpt>
<trkpt lat="42.74016754937258" lon="-8.956195376961023">
<ele>322</ele>
<time>2015-08-29T18:55:41Z</time>
</trkpt>
<trkpt lat="42.74027732377527" lon="-8.95637562992882">
<ele>321</ele>
<time>2015-08-29T18:55:43Z</time>
</trkpt>
<trkpt lat="42.740379335983604" lon="-8.956540358499593">
<ele>320</ele>
<time>2015-08-29T18:55:45Z</time>
</trkpt>
<trkpt lat="42.74048537066918" lon="-8.95670931512095">
<ele>318</ele>
<time>2015-08-29T18:55:47Z</time>
</trkpt>
<trkpt lat="42.74058410362687" lon="-8.956878912003345">
<ele>316</ele>
<time>2015-08-29T18:55:49Z</time>
</trkpt>
<trkpt lat="42.74068473387859" lon="-8.957030012963758">
<ele>314</ele>
<time>2015-08-29T18:55:51Z</time>
</trkpt>
<trkpt lat="42.74079556929304" lon="-8.957174736259535">
<ele>312</ele>
<time>2015-08-29T18:55:53Z</time>
</trkpt>
<trkpt lat="42.74091230282266" lon="-8.957320425271105">
<ele>310</ele>
<time>2015-08-29T18:55:55Z</time>
</trkpt>
<trkpt lat="42.74103294322447" lon="-8.95746546207964">
<ele>309</ele>
<time>2015-08-29T18:55:57Z</time>
</trkpt>
<trkpt lat="42.741115316365615" lon="-8.95759245564545">
<ele>306</ele>
<time>2015-08-29T18:55:59Z</time>
</trkpt>
<trkpt lat="42.74118626696282" lon="-8.957719789487829">
<ele>303</ele>
<time>2015-08-29T18:56:01Z</time>
</trkpt>
<trkpt lat="42.74125242672285" lon="-8.957830626824771">
<ele>299</ele>
<time>2015-08-29T18:56:03Z</time>
</trkpt>
<trkpt lat="42.74136890598142" lon="-8.958009412382454">
<ele>296</ele>
<time>2015-08-29T18:56:05Z</time>
</trkpt>
<trkpt lat="42.74148638703502" lon="-8.95821484681187">
<ele>293</ele>
<time>2015-08-29T18:56:07Z</time>
</trkpt>
<trkpt lat="42.74155188206866" lon="-8.958381736430033">
<ele>290</ele>
<time>2015-08-29T18:56:09Z</time>
</trkpt>
<trkpt lat="42.74162508303653" lon="-8.958550415826737">
<ele>287</ele>
<time>2015-08-29T18:56:11Z</time>
</trkpt>
<trkpt lat="42.74170138101303" lon="-8.958720618795278">
<ele>285</ele>
<time>2015-08-29T18:56:13Z</time>
</trkpt>
<trkpt lat="42.741780132314226" lon="-8.95888297219271">
<ele>283</ele>
<time>2015-08-29T18:56:15Z</time>
</trkpt>
<trkpt lat="42.7418646344478" lon="-8.959037075637047">
<ele>280</ele>
<time>2015-08-29T18:56:17Z</time>
</trkpt>
<trkpt lat="42.74196524939649" lon="-8.95920245544921">
<ele>279</ele>
<time>2015-08-29T18:56:19Z</time>
</trkpt>
<trkpt lat="42.74205228045861" lon="-8.959366707478454">
<ele>277</ele>
<time>2015-08-29T18:56:21Z</time>
</trkpt>
<trkpt lat="42.74212250340929" lon="-8.959522394946339">
<ele>276</ele>
<time>2015-08-29T18:56:23Z</time>
</trkpt>
<trkpt lat="42.74218766001667" lon="-8.95967227524519">
<ele>274</ele>
<time>2015-08-29T18:56:25Z</time>
</trkpt>
<trkpt lat="42.74223630935609" lon="-8.95979752891781">
<ele>273</ele>
<time>2015-08-29T18:56:27Z</time>
</trkpt>
<trkpt lat="42.74229022698163" lon="-8.959920334381987">
<ele>271</ele>
<time>2015-08-29T18:56:29Z</time>
</trkpt>
<trkpt lat="42.74238039026884" lon="-8.96006741973291">
<ele>269</ele>
<time>2015-08-29T18:56:31Z</time>
</trkpt>
<trkpt lat="42.74250472949253" lon="-8.960242413948038">
<ele>266</ele>
<time>2015-08-29T18:56:33Z</time>
</trkpt>
<trkpt lat="42.74260582409477" lon="-8.960395140728483">
<ele>263</ele>
<time>2015-08-29T18:56:35Z</time>
</trkpt>
<trkpt lat="42.74268805448837" lon="-8.960546635214868">
<ele>260</ele>
<time>2015-08-29T18:56:37Z</time>
</trkpt>
<trkpt lat="42.74278512674174" lon="-8.960730549488417">
<ele>258</ele>
<time>2015-08-29T18:56:39Z</time>
</trkpt>
<trkpt lat="42.74285882684698" lon="-8.960905790355074">
<ele>256</ele>
<time>2015-08-29T18:56:41Z</time>
</trkpt>
<trkpt lat="42.742906504592106" lon="-8.96103726310399">
<ele>254</ele>
<time>2015-08-29T18:56:43Z</time>
</trkpt>
<trkpt lat="42.74297727122027" lon="-8.96117767488552">
<ele>252</ele>
<time>2015-08-29T18:56:45Z</time>
</trkpt>
<trkpt lat="42.74309368045279" lon="-8.961294000135801">
<ele>250</ele>
<time>2015-08-29T18:56:47Z</time>
</trkpt>
<trkpt lat="42.74327062478999" lon="-8.96132387398759">
<ele>248</ele>
<time>2015-08-29T18:56:49Z</time>
</trkpt>
<trkpt lat="42.7434574881146" lon="-8.961299273147628">
<ele>243</ele>
<time>2015-08-29T18:56:51Z</time>
</trkpt>
<trkpt lat="42.7436459635516" lon="-8.961263188768696">
<ele>240</ele>
<time>2015-08-29T18:56:53Z</time>
</trkpt>
<trkpt lat="42.7438311949583" lon="-8.961213620796515">
<ele>238</ele>
<time>2015-08-29T18:56:55Z</time>
</trkpt>
<trkpt lat="42.74400852965296" lon="-8.961070518031379">
<ele>237</ele>
<time>2015-08-29T18:56:57Z</time>
</trkpt>
<trkpt lat="42.744155967383364" lon="-8.960847185772673">
<ele>234</ele>
<time>2015-08-29T18:56:59Z</time>
</trkpt>
<trkpt lat="42.744285821347184" lon="-8.96058526177388">
<ele>231</ele>
<time>2015-08-29T18:57:01Z</time>
</trkpt>
<trkpt lat="42.744416904443064" lon="-8.960281628634418">
<ele>225</ele>
<time>2015-08-29T18:57:03Z</time>
</trkpt>
<trkpt lat="42.74454721487705" lon="-8.959959931756671">
<ele>222</ele>
<time>2015-08-29T18:57:05Z</time>
</trkpt>
<trkpt lat="42.7446570963634" lon="-8.959664628688675">
<ele>219</ele>
<time>2015-08-29T18:57:07Z</time>
</trkpt>
<trkpt lat="42.74476277222987" lon="-8.959369176813635">
<ele>216</ele>
<time>2015-08-29T18:57:09Z</time>
</trkpt>
<trkpt lat="42.74488390729187" lon="-8.959123286035753">
<ele>215</ele>
<time>2015-08-29T18:57:11Z</time>
</trkpt>
<trkpt lat="42.74500176780461" lon="-8.9588691414441">
<ele>213</ele>
<time>2015-08-29T18:57:13Z</time>
</trkpt>
<trkpt lat="42.74511702446664" lon="-8.958583830894163">
<ele>211</ele>
<time>2015-08-29T18:57:15Z</time>
</trkpt>
<trkpt lat="42.74520564197428" lon="-8.95830118398046">
<ele>209</ele>
<time>2015-08-29T18:57:17Z</time>
</trkpt>
<trkpt lat="42.74524629537911" lon="-8.957972530444072">
<ele>207</ele>
<time>2015-08-29T18:57:19Z</time>
</trkpt>
<trkpt lat="42.745299052782585" lon="-8.957664202509854">
<ele>204</ele>
<time>2015-08-29T18:57:21Z</time>
</trkpt>
<trkpt lat="42.74540488656871" lon="-8.95735255145443">
<ele>201</ele>
<time>2015-08-29T18:57:23Z</time>
</trkpt>
<trkpt lat="42.74558569938713" lon="-8.957134973026344">
<ele>197</ele>
<time>2015-08-29T18:57:25Z</time>
</trkpt>
<trkpt lat="42.74579659632327" lon="-8.95704533912134">
<ele>193</ele>
<time>2015-08-29T18:57:27Z</time>
</trkpt>
<trkpt lat="42.74598188221348" lon="-8.957086056609365">
<ele>190</ele>
<time>2015-08-29T18:57:29Z</time>
</trkpt>
<trkpt lat="42.74613033906833" lon="-8.957220121683488">
<ele>186</ele>
<time>2015-08-29T18:57:31Z</time>
</trkpt>
<trkpt lat="42.74623856245012" lon="-8.957365409906199">
<ele>182</ele>
<time>2015-08-29T18:57:33Z</time>
</trkpt>
<trkpt lat="42.746274695332616" lon="-8.95748878165756">
<ele>180</ele>
<time>2015-08-29T18:57:35Z</time>
</trkpt>
<trkpt lat="42.746274697918764" lon="-8.957637309978299">
<ele>177</ele>
<time>2015-08-29T18:57:37Z</time>
</trkpt>
<trkpt lat="42.746276534134125" lon="-8.95780365268405">
<ele>169</ele>
<time>2015-08-29T18:57:39Z</time>
</trkpt>
<trkpt lat="42.746269375591766" lon="-8.957949420356831">
<ele>163</ele>
<time>2015-08-29T18:57:41Z</time>
</trkpt>
<trkpt lat="42.7462553988864" lon="-8.958074262815138">
<ele>157</ele>
<time>2015-08-29T18:57:43Z</time>
</trkpt>
<trkpt lat="42.746229487064184" lon="-8.958174909184375">
<ele>145</ele>
<time>2015-08-29T18:57:45Z</time>
</trkpt>
<trkpt lat="42.74619354848496" lon="-8.958278662358328">
<ele>137</ele>
<time>2015-08-29T18:57:47Z</time>
</trkpt>
<trkpt lat="42.7461498467839" lon="-8.958368756007253">
<ele>136</ele>
<time>2015-08-29T18:57:49Z</time>
</trkpt>
<trkpt lat="42.74611853968807" lon="-8.958443193711224">
<ele>136</ele>
<time>2015-08-29T18:57:51Z</time>
</trkpt>
<trkpt lat="42.74612548319649" lon="-8.958465195606955">
<ele>136</ele>
<time>2015-08-29T18:57:53Z</time>
</trkpt>
<trkpt lat="42.74629961056182" lon="-8.95833936485468">
<ele>132</ele>
<time>2015-08-29T18:57:55Z</time>
</trkpt>
<trkpt lat="42.74638789158908" lon="-8.958039793878193">
<ele>120</ele>
<time>2015-08-29T18:57:57Z</time>
</trkpt>
<trkpt lat="42.74630622863284" lon="-8.957830132829955">
<ele>104</ele>
<time>2015-08-29T18:57:59Z</time>
</trkpt>
<trkpt lat="42.74618501609839" lon="-8.957711675021333">
<ele>100</ele>
<time>2015-08-29T18:58:01Z</time>
</trkpt>
<trkpt lat="42.74609777480341" lon="-8.957628250743499">
<ele>101</ele>
<time>2015-08-29T18:58:03Z</time>
</trkpt>
<trkpt lat="42.74602723212086" lon="-8.957476026145635">
<ele>105</ele>
<time>2015-08-29T18:58:05Z</time>
</trkpt>
<trkpt lat="42.745966317406776" lon="-8.957445916429508">
<ele>107</ele>
<time>2015-08-29T18:58:07Z</time>
</trkpt>
<trkpt lat="42.74590236419003" lon="-8.957518326885214">
<ele>103</ele>
<time>2015-08-29T18:58:09Z</time>
</trkpt>
<trkpt lat="42.74586448469989" lon="-8.95764748886246">
<ele>97</ele>
<time>2015-08-29T18:58:11Z</time>
</trkpt>
<trkpt lat="42.745853087988536" lon="-8.957723612794036">
<ele>96</ele>
<time>2015-08-29T18:58:13Z</time>
</trkpt>
<trkpt lat="42.745853087988536" lon="-8.957723612794036">
<ele>95</ele>
<time>2015-08-29T18:58:15Z</time>
</trkpt>
<trkpt lat="42.74615533754572" lon="-8.957563511197973">
<ele>77</ele>
<time>2015-08-29T18:58:17Z</time>
</trkpt>
<trkpt lat="42.74642605920269" lon="-8.957349325835336">
<ele>70</ele>
<time>2015-08-29T18:58:19Z</time>
</trkpt>
<trkpt lat="42.74661241194365" lon="-8.957174354287014">
<ele>68</ele>
<time>2015-08-29T18:58:21Z</time>
</trkpt>
<trkpt lat="42.746749151398" lon="-8.95692216580963">
<ele>67</ele>
<time>2015-08-29T18:58:23Z</time>
</trkpt>
<trkpt lat="42.74677375441636" lon="-8.956569112600311">
<ele>68</ele>
<time>2015-08-29T18:58:25Z</time>
</trkpt>
<trkpt lat="42.746803156985344" lon="-8.956255174258128">
<ele>68</ele>
<time>2015-08-29T18:58:27Z</time>
</trkpt>
<trkpt lat="42.746869118828464" lon="-8.955978675467607">
<ele>71</ele>
<time>2015-08-29T18:58:29Z</time>
</trkpt>
<trkpt lat="42.74699252538077" lon="-8.955728422847885">
<ele>73</ele>
<time>2015-08-29T18:58:31Z</time>
</trkpt>
<trkpt lat="42.74718978803897" lon="-8.955570038016155">
<ele>76</ele>
<time>2015-08-29T18:58:33Z</time>
</trkpt>
<trkpt lat="42.74741294173775" lon="-8.955601903492768">
<ele>79</ele>
<time>2015-08-29T18:58:35Z</time>
</trkpt>
<trkpt lat="42.74752200885709" lon="-8.955855776654694">
<ele>78</ele>
<time>2015-08-29T18:58:37Z</time>
</trkpt>
<trkpt lat="42.747459330860835" lon="-8.95606548351835">
<ele>77</ele>
<time>2015-08-29T18:58:39Z</time>
</trkpt>
<trkpt lat="42.747301374411585" lon="-8.95617388074341">
<ele>71</ele>
<time>2015-08-29T18:58:41Z</time>
</trkpt>
<trkpt lat="42.74719023248051" lon="-8.956215227155178">
<ele>65</ele>
<time>2015-08-29T18:58:43Z</time>
</trkpt>
<trkpt lat="42.747085185456484" lon="-8.956229992529765">
<ele>63</ele>
<time>2015-08-29T18:58:45Z</time>
</trkpt>
<trkpt lat="42.74694891198127" lon="-8.956238266164142">
<ele>63</ele>
<time>2015-08-29T18:58:47Z</time>
</trkpt>
<trkpt lat="42.74682024785133" lon="-8.956251590355912">
<ele>61</ele>
<time>2015-08-29T18:58:49Z</time>
</trkpt>
<trkpt lat="42.746695385874965" lon="-8.956270353596263">
<ele>59</ele>
<time>2015-08-29T18:58:51Z</time>
</trkpt>
<trkpt lat="42.7465738353742" lon="-8.956310575529645">
<ele>57</ele>
<time>2015-08-29T18:58:53Z</time>
</trkpt>
<trkpt lat="42.74648551573768" lon="-8.956359313447253">
<ele>56</ele>
<time>2015-08-29T18:58:55Z</time>
</trkpt>
<trkpt lat="42.74643686139115" lon="-8.956390054420059">
<ele>56</ele>
<time>2015-08-29T18:58:57Z</time>
</trkpt>
<trkpt lat="42.74639062213933" lon="-8.956408893804204">
<ele>56</ele>
<time>2015-08-29T18:58:59Z</time>
</trkpt>
<trkpt lat="42.746370060933934" lon="-8.9564130501797">
<ele>56</ele>
<time>2015-08-29T18:59:01Z</time>
</trkpt>
<trkpt lat="42.746370060933934" lon="-8.9564130501797">
<ele>56</ele>
<time>2015-08-29T18:59:03Z</time>
</trkpt>
<trkpt lat="42.746370060933934" lon="-8.9564130501797">
<ele>56</ele>
<time>2015-08-29T18:59:05Z</time>
</trkpt>
<trkpt lat="42.746370060933934" lon="-8.9564130501797">
<ele>56</ele>
<time>2015-08-29T18:59:07Z</time>
</trkpt>
<trkpt lat="42.746370060933934" lon="-8.9564130501797">
<ele>56</ele>
<time>2015-08-29T18:59:09Z</time>
</trkpt>
<trkpt lat="42.746370060933934" lon="-8.9564130501797">
<ele>56</ele>
<time>2015-08-29T18:59:11Z</time>
</trkpt>
<trkpt lat="42.746370060933934" lon="-8.9564130501797">
<ele>56</ele>
<time>2015-08-29T18:59:13Z</time>
</trkpt>
<trkpt lat="42.746370060933934" lon="-8.9564130501797">
<ele>56</ele>
<time>2015-08-29T18:59:15Z</time>
</trkpt>
<trkpt lat="42.746370060933934" lon="-8.9564130501797">
<ele>56</ele>
<time>2015-08-29T18:59:17Z</time>
</trkpt>
<trkpt lat="42.746370060933934" lon="-8.9564130501797">
<ele>56</ele>
<time>2015-08-29T18:59:19Z</time>
</trkpt>
<trkpt lat="42.746370060933934" lon="-8.9564130501797">
<ele>56</ele>
<time>2015-08-29T18:59:21Z</time>
</trkpt>
<trkpt lat="42.746370060933934" lon="-8.9564130501797">
<ele>56</ele>
<time>2015-08-29T18:59:23Z</time>
</trkpt>
<trkpt lat="42.746370060933934" lon="-8.9564130501797">
<ele>56</ele>
<time>2015-08-29T18:59:25Z</time>
</trkpt>
<trkpt lat="42.746370060933934" lon="-8.9564130501797">
<ele>56</ele>
<time>2015-08-29T18:59:27Z</time>
</trkpt>
<trkpt lat="42.746370060933934" lon="-8.9564130501797">
<ele>56</ele>
<time>2015-08-29T18:59:29Z</time>
</trkpt>
<trkpt lat="42.746370060933934" lon="-8.9564130501797">
<ele>56</ele>
<time>2015-08-29T18:59:31Z</time>
</trkpt>
<trkpt lat="42.746370060933934" lon="-8.9564130501797">
<ele>56</ele>
<time>2015-08-29T18:59:33Z</time>
</trkpt>
<trkpt lat="42.746370060933934" lon="-8.9564130501797">
<ele>56</ele>
<time>2015-08-29T18:59:35Z</time>
</trkpt>
<trkpt lat="42.746370060933934" lon="-8.9564130501797">
<ele>56</ele>
<time>2015-08-29T18:59:37Z</time>
</trkpt>
<trkpt lat="42.746370060933934" lon="-8.9564130501797">
<ele>56</ele>
<time>2015-08-29T18:59:39Z</time>
</trkpt>
<trkpt lat="42.746370060933934" lon="-8.9564130501797">
<ele>56</ele>
<time>2015-08-29T18:59:41Z</time>
</trkpt>
<trkpt lat="42.746370060933934" lon="-8.9564130501797">
<ele>56</ele>
<time>2015-08-29T18:59:43Z</time>
</trkpt>
<trkpt lat="42.746370060933934" lon="-8.9564130501797">
<ele>56</ele>
<time>2015-08-29T18:59:45Z</time>
</trkpt>
<trkpt lat="42.746370060933934" lon="-8.9564130501797">
<ele>56</ele>
<time>2015-08-29T18:59:47Z</time>
</trkpt>
<trkpt lat="42.746370060933934" lon="-8.9564130501797">
<ele>56</ele>
<time>2015-08-29T18:59:49Z</time>
</trkpt>
<trkpt lat="42.746370060933934" lon="-8.9564130501797">
<ele>56</ele>
<time>2015-08-29T18:59:51Z</time>
</trkpt>
<trkpt lat="42.746370060933934" lon="-8.9564130501797">
<ele>56</ele>
<time>2015-08-29T18:59:53Z</time>
</trkpt>
<trkpt lat="42.746370060933934" lon="-8.9564130501797">
<ele>56</ele>
<time>2015-08-29T18:59:55Z</time>
</trkpt>
<trkpt lat="42.746370060933934" lon="-8.9564130501797">
<ele>56</ele>
<time>2015-08-29T18:59:57Z</time>
</trkpt>
<trkpt lat="42.746370060933934" lon="-8.9564130501797">
<ele>56</ele>
<time>2015-08-29T18:59:59Z</time>
</trkpt>
<trkpt lat="42.746370060933934" lon="-8.9564130501797">
<ele>56</ele>
<time>2015-08-29T19:00:01Z</time>
</trkpt>
<trkpt lat="42.746370060933934" lon="-8.9564130501797">
<ele>56</ele>
<time>2015-08-29T19:00:03Z</time>
</trkpt>
<trkpt lat="42.746370060933934" lon="-8.9564130501797">
<ele>56</ele>
<time>2015-08-29T19:00:05Z</time>
</trkpt>
<trkpt lat="42.746370060933934" lon="-8.9564130501797">
<ele>56</ele>
<time>2015-08-29T19:00:07Z</time>
</trkpt>
<trkpt lat="42.746370060933934" lon="-8.9564130501797">
<ele>56</ele>
<time>2015-08-29T19:00:09Z</time>
</trkpt>
<trkpt lat="42.746370060933934" lon="-8.9564130501797">
<ele>56</ele>
<time>2015-08-29T19:00:11Z</time>
</trkpt>
<trkpt lat="42.746370060933934" lon="-8.9564130501797">
<ele>56</ele>
<time>2015-08-29T19:00:13Z</time>
</trkpt>
<trkpt lat="42.746370060933934" lon="-8.9564130501797">
<ele>56</ele>
<time>2015-08-29T19:00:15Z</time>
</trkpt>
<trkpt lat="42.746370060933934" lon="-8.9564130501797">
<ele>56</ele>
<time>2015-08-29T19:00:17Z</time>
</trkpt>
<trkpt lat="42.746370060933934" lon="-8.9564130501797">
<ele>56</ele>
<time>2015-08-29T19:00:19Z</time>
</trkpt>
<trkpt lat="42.746370060933934" lon="-8.9564130501797">
<ele>56</ele>
<time>2015-08-29T19:00:21Z</time>
</trkpt>
<trkpt lat="42.746370060933934" lon="-8.9564130501797">
<ele>56</ele>
<time>2015-08-29T19:00:23Z</time>
</trkpt>
<trkpt lat="42.746370060933934" lon="-8.9564130501797">
<ele>56</ele>
<time>2015-08-29T19:00:25Z</time>
</trkpt>
<trkpt lat="42.746370060933934" lon="-8.9564130501797">
<ele>56</ele>
<time>2015-08-29T19:00:27Z</time>
</trkpt>
<trkpt lat="42.746370060933934" lon="-8.9564130501797">
<ele>57</ele>
<time>2015-08-29T19:00:29Z</time>
</trkpt>
<trkpt lat="42.74643431127752" lon="-8.956424243868357">
<ele>57</ele>
<time>2015-08-29T19:00:31Z</time>
</trkpt>
<trkpt lat="42.74643431127752" lon="-8.956424243868357">
<ele>57</ele>
<time>2015-08-29T19:00:33Z</time>
</trkpt>
<trkpt lat="42.74643431127752" lon="-8.956424243868357">
<ele>57</ele>
<time>2015-08-29T19:00:35Z</time>
</trkpt>
<trkpt lat="42.74643431127752" lon="-8.956424243868357">
<ele>57</ele>
<time>2015-08-29T19:00:37Z</time>
</trkpt>
<trkpt lat="42.74643431127752" lon="-8.956424243868357">
<ele>57</ele>
<time>2015-08-29T19:00:39Z</time>
</trkpt>
<trkpt lat="42.74643431127752" lon="-8.956424243868357">
<ele>57</ele>
<time>2015-08-29T19:00:41Z</time>
</trkpt>
<trkpt lat="42.74643431127752" lon="-8.956424243868357">
<ele>57</ele>
<time>2015-08-29T19:00:43Z</time>
</trkpt>
<trkpt lat="42.74643431127752" lon="-8.956424243868357">
<ele>57</ele>
<time>2015-08-29T19:00:45Z</time>
</trkpt>
<trkpt lat="42.74643431127752" lon="-8.956424243868357">
<ele>57</ele>
<time>2015-08-29T19:00:47Z</time>
</trkpt>
<trkpt lat="42.74643431127752" lon="-8.956424243868357">
<ele>57</ele>
<time>2015-08-29T19:00:49Z</time>
</trkpt>
<trkpt lat="42.74643431127752" lon="-8.956424243868357">
<ele>57</ele>
<time>2015-08-29T19:00:51Z</time>
</trkpt>
<trkpt lat="42.74643431127752" lon="-8.956424243868357">
<ele>57</ele>
<time>2015-08-29T19:00:53Z</time>
</trkpt>
<trkpt lat="42.74643431127752" lon="-8.956424243868357">
<ele>57</ele>
<time>2015-08-29T19:00:55Z</time>
</trkpt>
<trkpt lat="42.74643431127752" lon="-8.956424243868357">
<ele>57</ele>
<time>2015-08-29T19:00:57Z</time>
</trkpt>
<trkpt lat="42.74643431127752" lon="-8.956424243868357">
<ele>57</ele>
<time>2015-08-29T19:00:59Z</time>
</trkpt>
<trkpt lat="42.74643431127752" lon="-8.956424243868357">
<ele>57</ele>
<time>2015-08-29T19:01:01Z</time>
</trkpt>
<trkpt lat="42.74643431127752" lon="-8.956424243868357">
<ele>57</ele>
<time>2015-08-29T19:01:03Z</time>
</trkpt>
<trkpt lat="42.74643431127752" lon="-8.956424243868357">
<ele>57</ele>
<time>2015-08-29T19:01:05Z</time>
</trkpt>
<trkpt lat="42.74643431127752" lon="-8.956424243868357">
<ele>57</ele>
<time>2015-08-29T19:01:07Z</time>
</trkpt>
<trkpt lat="42.74643431127752" lon="-8.956424243868357">
<ele>57</ele>
<time>2015-08-29T19:01:09Z</time>
</trkpt>
<trkpt lat="42.74643431127752" lon="-8.956424243868357">
<ele>57</ele>
<time>2015-08-29T19:01:11Z</time>
</trkpt>
<trkpt lat="42.74643431127752" lon="-8.956424243868357">
<ele>57</ele>
<time>2015-08-29T19:01:13Z</time>
</trkpt>
<trkpt lat="42.74643431127752" lon="-8.956424243868357">
<ele>57</ele>
<time>2015-08-29T19:01:15Z</time>
</trkpt>
<trkpt lat="42.74643431127752" lon="-8.956424243868357">
<ele>57</ele>
<time>2015-08-29T19:01:17Z</time>
</trkpt>
<trkpt lat="42.74643431127752" lon="-8.956424243868357">
<ele>57</ele>
<time>2015-08-29T19:01:19Z</time>
</trkpt>
<trkpt lat="42.74643431127752" lon="-8.956424243868357">
<ele>57</ele>
<time>2015-08-29T19:01:21Z</time>
</trkpt>
<trkpt lat="42.74643431127752" lon="-8.956424243868357">
<ele>57</ele>
<time>2015-08-29T19:01:23Z</time>
</trkpt>
<trkpt lat="42.74643431127752" lon="-8.956424243868357">
<ele>57</ele>
<time>2015-08-29T19:01:25Z</time>
</trkpt>
<trkpt lat="42.74643431127752" lon="-8.956424243868357">
<ele>57</ele>
<time>2015-08-29T19:01:27Z</time>
</trkpt>
<trkpt lat="42.74643431127752" lon="-8.956424243868357">
<ele>57</ele>
<time>2015-08-29T19:01:29Z</time>
</trkpt>
<trkpt lat="42.74643431127752" lon="-8.956424243868357">
<ele>57</ele>
<time>2015-08-29T19:01:31Z</time>
</trkpt>
<trkpt lat="42.74643431127752" lon="-8.956424243868357">
<ele>57</ele>
<time>2015-08-29T19:01:33Z</time>
</trkpt>
<trkpt lat="42.74643431127752" lon="-8.956424243868357">
<ele>57</ele>
<time>2015-08-29T19:01:35Z</time>
</trkpt>
<trkpt lat="42.74643431127752" lon="-8.956424243868357">
<ele>57</ele>
<time>2015-08-29T19:01:37Z</time>
</trkpt>
<trkpt lat="42.74643431127752" lon="-8.956424243868357">
<ele>57</ele>
<time>2015-08-29T19:01:39Z</time>
</trkpt>
<trkpt lat="42.74643431127752" lon="-8.956424243868357">
<ele>57</ele>
<time>2015-08-29T19:01:41Z</time>
</trkpt>
<trkpt lat="42.74643431127752" lon="-8.956424243868357">
<ele>57</ele>
<time>2015-08-29T19:01:43Z</time>
</trkpt>
<trkpt lat="42.74643431127752" lon="-8.956424243868357">
<ele>57</ele>
<time>2015-08-29T19:01:45Z</time>
</trkpt>
<trkpt lat="42.74643431127752" lon="-8.956424243868357">
<ele>57</ele>
<time>2015-08-29T19:01:47Z</time>
</trkpt>
<trkpt lat="42.74643431127752" lon="-8.956424243868357">
<ele>57</ele>
<time>2015-08-29T19:01:49Z</time>
</trkpt>
<trkpt lat="42.74643431127752" lon="-8.956424243868357">
<ele>57</ele>
<time>2015-08-29T19:01:51Z</time>
</trkpt>
<trkpt lat="42.74643431127752" lon="-8.956424243868357">
<ele>58</ele>
<time>2015-08-29T19:01:53Z</time>
</trkpt>
<trkpt lat="42.74643431127752" lon="-8.956424243868357">
<ele>58</ele>
<time>2015-08-29T19:01:55Z</time>
</trkpt>
<trkpt lat="42.74643431127752" lon="-8.956424243868357">
<ele>58</ele>
<time>2015-08-29T19:01:57Z</time>
</trkpt>
<trkpt lat="42.74643431127752" lon="-8.956424243868357">
<ele>58</ele>
<time>2015-08-29T19:01:59Z</time>
</trkpt>
<trkpt lat="42.74643431127752" lon="-8.956424243868357">
<ele>58</ele>
<time>2015-08-29T19:02:01Z</time>
</trkpt>
<trkpt lat="42.74643431127752" lon="-8.956424243868357">
<ele>58</ele>
<time>2015-08-29T19:02:03Z</time>
</trkpt>
<trkpt lat="42.74643431127752" lon="-8.956424243868357">
<ele>58</ele>
<time>2015-08-29T19:02:05Z</time>
</trkpt>
<trkpt lat="42.74643431127752" lon="-8.956424243868357">
<ele>58</ele>
<time>2015-08-29T19:02:07Z</time>
</trkpt>
<trkpt lat="42.74643431127752" lon="-8.956424243868357">
<ele>58</ele>
<time>2015-08-29T19:02:09Z</time>
</trkpt>
<trkpt lat="42.74643431127752" lon="-8.956424243868357">
<ele>58</ele>
<time>2015-08-29T19:02:11Z</time>
</trkpt>
<trkpt lat="42.74643431127752" lon="-8.956424243868357">
<ele>58</ele>
<time>2015-08-29T19:02:13Z</time>
</trkpt>
<trkpt lat="42.74643431127752" lon="-8.956424243868357">
<ele>58</ele>
<time>2015-08-29T19:02:15Z</time>
</trkpt>
<trkpt lat="42.74643431127752" lon="-8.956424243868357">
<ele>58</ele>
<time>2015-08-29T19:02:17Z</time>
</trkpt>
<trkpt lat="42.74643431127752" lon="-8.956424243868357">
<ele>58</ele>
<time>2015-08-29T19:02:19Z</time>
</trkpt>
<trkpt lat="42.74643431127752" lon="-8.956424243868357">
<ele>58</ele>
<time>2015-08-29T19:02:21Z</time>
</trkpt>
<trkpt lat="42.74643431127752" lon="-8.956424243868357">
<ele>58</ele>
<time>2015-08-29T19:02:23Z</time>
</trkpt>
<trkpt lat="42.74643431127752" lon="-8.956424243868357">
<ele>58</ele>
<time>2015-08-29T19:02:25Z</time>
</trkpt>
<trkpt lat="42.74643431127752" lon="-8.956424243868357">
<ele>58</ele>
<time>2015-08-29T19:02:27Z</time>
</trkpt>
<trkpt lat="42.74643431127752" lon="-8.956424243868357">
<ele>58</ele>
<time>2015-08-29T19:02:29Z</time>
</trkpt>
<trkpt lat="42.74643431127752" lon="-8.956424243868357">
<ele>58</ele>
<time>2015-08-29T19:02:31Z</time>
</trkpt>
<trkpt lat="42.74643431127752" lon="-8.956424243868357">
<ele>58</ele>
<time>2015-08-29T19:02:33Z</time>
</trkpt>
<trkpt lat="42.74643431127752" lon="-8.956424243868357">
<ele>58</ele>
<time>2015-08-29T19:02:35Z</time>
</trkpt>
<trkpt lat="42.74643431127752" lon="-8.956424243868357">
<ele>58</ele>
<time>2015-08-29T19:02:37Z</time>
</trkpt>
<trkpt lat="42.74643431127752" lon="-8.956424243868357">
<ele>58</ele>
<time>2015-08-29T19:02:39Z</time>
</trkpt>
<trkpt lat="42.74643431127752" lon="-8.956424243868357">
<ele>58</ele>
<time>2015-08-29T19:02:41Z</time>
</trkpt>
<trkpt lat="42.74643431127752" lon="-8.956424243868357">
<ele>58</ele>
<time>2015-08-29T19:02:43Z</time>
</trkpt>
<trkpt lat="42.74643431127752" lon="-8.956424243868357">
<ele>58</ele>
<time>2015-08-29T19:02:45Z</time>
</trkpt>
<trkpt lat="42.74643431127752" lon="-8.956424243868357">
<ele>58</ele>
<time>2015-08-29T19:02:47Z</time>
</trkpt>
<trkpt lat="42.74643431127752" lon="-8.956424243868357">
<ele>58</ele>
<time>2015-08-29T19:02:49Z</time>
</trkpt>
<trkpt lat="42.74643431127752" lon="-8.956424243868357">
<ele>58</ele>
<time>2015-08-29T19:02:51Z</time>
</trkpt>
<trkpt lat="42.74643431127752" lon="-8.956424243868357">
<ele>58</ele>
<time>2015-08-29T19:02:53Z</time>
</trkpt>
<trkpt lat="42.74643431127752" lon="-8.956424243868357">
<ele>58</ele>
<time>2015-08-29T19:02:55Z</time>
</trkpt>
<trkpt lat="42.74643431127752" lon="-8.956424243868357">
<ele>58</ele>
<time>2015-08-29T19:02:57Z</time>
</trkpt>
<trkpt lat="42.74643431127752" lon="-8.956424243868357">
<ele>58</ele>
<time>2015-08-29T19:02:59Z</time>
</trkpt>
<trkpt lat="42.74643431127752" lon="-8.956424243868357">
<ele>58</ele>
<time>2015-08-29T19:03:01Z</time>
</trkpt>
<trkpt lat="42.74643431127752" lon="-8.956424243868357">
<ele>58</ele>
<time>2015-08-29T19:03:03Z</time>
</trkpt>
<trkpt lat="42.74643431127752" lon="-8.956424243868357">
<ele>58</ele>
<time>2015-08-29T19:03:05Z</time>
</trkpt>
<trkpt lat="42.74643431127752" lon="-8.956424243868357">
<ele>58</ele>
<time>2015-08-29T19:03:07Z</time>
</trkpt>
<trkpt lat="42.74643431127752" lon="-8.956424243868357">
<ele>58</ele>
<time>2015-08-29T19:03:09Z</time>
</trkpt>
<trkpt lat="42.74643431127752" lon="-8.956424243868357">
<ele>58</ele>
<time>2015-08-29T19:03:11Z</time>
</trkpt>
<trkpt lat="42.74643431127752" lon="-8.956424243868357">
<ele>58</ele>
<time>2015-08-29T19:03:13Z</time>
</trkpt>
<trkpt lat="42.74643431127752" lon="-8.956424243868357">
<ele>58</ele>
<time>2015-08-29T19:03:15Z</time>
</trkpt>
<trkpt lat="42.74643431127752" lon="-8.956424243868357">
<ele>58</ele>
<time>2015-08-29T19:03:17Z</time>
</trkpt>
<trkpt lat="42.74643431127752" lon="-8.956424243868357">
<ele>58</ele>
<time>2015-08-29T19:03:19Z</time>
</trkpt>
<trkpt lat="42.74643431127752" lon="-8.956424243868357">
<ele>58</ele>
<time>2015-08-29T19:03:21Z</time>
</trkpt>
<trkpt lat="42.74643431127752" lon="-8.956424243868357">
<ele>58</ele>
<time>2015-08-29T19:03:23Z</time>
</trkpt>
<trkpt lat="42.74643431127752" lon="-8.956424243868357">
<ele>58</ele>
<time>2015-08-29T19:03:25Z</time>
</trkpt>
<trkpt lat="42.74643431127752" lon="-8.956424243868357">
<ele>58</ele>
<time>2015-08-29T19:03:28Z</time>
</trkpt>
<trkpt lat="42.74643431127752" lon="-8.956424243868357">
<ele>58</ele>
<time>2015-08-29T19:03:30Z</time>
</trkpt>
<trkpt lat="42.74643431127752" lon="-8.956424243868357">
<ele>58</ele>
<time>2015-08-29T19:03:32Z</time>
</trkpt>
<trkpt lat="42.74643431127752" lon="-8.956424243868357">
<ele>58</ele>
<time>2015-08-29T19:03:34Z</time>
</trkpt>
<trkpt lat="42.74643431127752" lon="-8.956424243868357">
<ele>58</ele>
<time>2015-08-29T19:03:36Z</time>
</trkpt>
<trkpt lat="42.74643431127752" lon="-8.956424243868357">
<ele>57</ele>
<time>2015-08-29T19:03:38Z</time>
</trkpt>
<trkpt lat="42.74643431127752" lon="-8.956424243868357">
<ele>57</ele>
<time>2015-08-29T19:03:40Z</time>
</trkpt>
<trkpt lat="42.74643431127752" lon="-8.956424243868357">
<ele>57</ele>
<time>2015-08-29T19:03:42Z</time>
</trkpt>
<trkpt lat="42.74643431127752" lon="-8.956424243868357">
<ele>57</ele>
<time>2015-08-29T19:03:44Z</time>
</trkpt>
<trkpt lat="42.74643431127752" lon="-8.956424243868357">
<ele>57</ele>
<time>2015-08-29T19:03:46Z</time>
</trkpt>
<trkpt lat="42.74643431127752" lon="-8.956424243868357">
<ele>57</ele>
<time>2015-08-29T19:03:48Z</time>
</trkpt>
<trkpt lat="42.74643431127752" lon="-8.956424243868357">
<ele>57</ele>
<time>2015-08-29T19:03:50Z</time>
</trkpt>
<trkpt lat="42.74643431127752" lon="-8.956424243868357">
<ele>57</ele>
<time>2015-08-29T19:03:52Z</time>
</trkpt>
<trkpt lat="42.74643431127752" lon="-8.956424243868357">
<ele>57</ele>
<time>2015-08-29T19:03:54Z</time>
</trkpt>
<trkpt lat="42.74641394415144" lon="-8.956453832309522">
<ele>57</ele>
<time>2015-08-29T19:03:56Z</time>
</trkpt>
<trkpt lat="42.74640662443726" lon="-8.9564547770359">
<ele>57</ele>
<time>2015-08-29T19:03:58Z</time>
</trkpt>
<trkpt lat="42.746397501165724" lon="-8.956457297434046">
<ele>57</ele>
<time>2015-08-29T19:04:00Z</time>
</trkpt>
<trkpt lat="42.74638918387442" lon="-8.956460504178752">
<ele>57</ele>
<time>2015-08-29T19:04:02Z</time>
</trkpt>
<trkpt lat="42.74638226326264" lon="-8.956462709525226">
<ele>57</ele>
<time>2015-08-29T19:04:04Z</time>
</trkpt>
<trkpt lat="42.74637530788695" lon="-8.956459638301359">
<ele>57</ele>
<time>2015-08-29T19:04:06Z</time>
</trkpt>
<trkpt lat="42.74636962704151" lon="-8.956457554918712">
<ele>57</ele>
<time>2015-08-29T19:04:08Z</time>
</trkpt>
<trkpt lat="42.746369514517106" lon="-8.956455335889833">
<ele>57</ele>
<time>2015-08-29T19:04:10Z</time>
</trkpt>
<trkpt lat="42.74637446849969" lon="-8.956454051581948">
<ele>57</ele>
<time>2015-08-29T19:04:12Z</time>
</trkpt>
<trkpt lat="42.74638293273623" lon="-8.956453494022224">
<ele>57</ele>
<time>2015-08-29T19:04:14Z</time>
</trkpt>
<trkpt lat="42.74639956041335" lon="-8.956450994416691">
<ele>57</ele>
<time>2015-08-29T19:04:16Z</time>
</trkpt>
<trkpt lat="42.74640324853825" lon="-8.956465972332857">
<ele>58</ele>
<time>2015-08-29T19:04:18Z</time>
</trkpt>
<trkpt lat="42.74640331757424" lon="-8.956463720711206">
<ele>58</ele>
<time>2015-08-29T19:04:20Z</time>
</trkpt>
<trkpt lat="42.7463951895507" lon="-8.956457041634664">
<ele>58</ele>
<time>2015-08-29T19:04:22Z</time>
</trkpt>
<trkpt lat="42.74638236902906" lon="-8.956452559738306">
<ele>58</ele>
<time>2015-08-29T19:04:24Z</time>
</trkpt>
<trkpt lat="42.746370250843846" lon="-8.956446972222064">
<ele>58</ele>
<time>2015-08-29T19:04:26Z</time>
</trkpt>
<trkpt lat="42.746359159194895" lon="-8.956442581417578">
<ele>58</ele>
<time>2015-08-29T19:04:28Z</time>
</trkpt>
<trkpt lat="42.7463543058271" lon="-8.95643580192563">
<ele>57</ele>
<time>2015-08-29T19:04:30Z</time>
</trkpt>
<trkpt lat="42.74635441222367" lon="-8.956427334484477">
<ele>57</ele>
<time>2015-08-29T19:04:32Z</time>
</trkpt>
<trkpt lat="42.74635161990334" lon="-8.956423113174049">
<ele>57</ele>
<time>2015-08-29T19:04:34Z</time>
</trkpt>
<trkpt lat="42.74635785566491" lon="-8.956428503054932">
<ele>57</ele>
<time>2015-08-29T19:04:36Z</time>
</trkpt>
<trkpt lat="42.74636659309439" lon="-8.956433790869037">
<ele>57</ele>
<time>2015-08-29T19:04:38Z</time>
</trkpt>
<trkpt lat="42.746374728636276" lon="-8.95644249084944">
<ele>57</ele>
<time>2015-08-29T19:04:40Z</time>
</trkpt>
<trkpt lat="42.74638149956065" lon="-8.956451904927892">
<ele>57</ele>
<time>2015-08-29T19:04:42Z</time>
</trkpt>
<trkpt lat="42.7463880675441" lon="-8.956457096172615">
<ele>57</ele>
<time>2015-08-29T19:04:44Z</time>
</trkpt>
<trkpt lat="42.74639134526379" lon="-8.956460115043502">
<ele>57</ele>
<time>2015-08-29T19:04:46Z</time>
</trkpt>
<trkpt lat="42.74639319449624" lon="-8.95646405272946">
<ele>57</ele>
<time>2015-08-29T19:04:48Z</time>
</trkpt>
<trkpt lat="42.74639649790867" lon="-8.95646796016153">
<ele>57</ele>
<time>2015-08-29T19:04:50Z</time>
</trkpt>
<trkpt lat="42.74640108214131" lon="-8.956471283174032">
<ele>57</ele>
<time>2015-08-29T19:04:52Z</time>
</trkpt>
<trkpt lat="42.74640764996918" lon="-8.956475706628115">
<ele>57</ele>
<time>2015-08-29T19:04:54Z</time>
</trkpt>
<trkpt lat="42.74641630378279" lon="-8.956472645922448">
<ele>57</ele>
<time>2015-08-29T19:04:56Z</time>
</trkpt>
<trkpt lat="42.74642155110539" lon="-8.956460918053677">
<ele>57</ele>
<time>2015-08-29T19:04:58Z</time>
</trkpt>
<trkpt lat="42.74642974467131" lon="-8.956452201316491">
<ele>57</ele>
<time>2015-08-29T19:05:00Z</time>
</trkpt>
<trkpt lat="42.746434184463375" lon="-8.956443614573587">
<ele>57</ele>
<time>2015-08-29T19:05:02Z</time>
</trkpt>
<trkpt lat="42.74643590643319" lon="-8.956437090573965">
<ele>57</ele>
<time>2015-08-29T19:05:04Z</time>
</trkpt>
<trkpt lat="42.74643687128479" lon="-8.956435403104544">
<ele>57</ele>
<time>2015-08-29T19:05:06Z</time>
</trkpt>
<trkpt lat="42.74643842330868" lon="-8.956433942485479">
<ele>57</ele>
<time>2015-08-29T19:05:08Z</time>
</trkpt>
<trkpt lat="42.74644195380131" lon="-8.956434973980258">
<ele>57</ele>
<time>2015-08-29T19:05:10Z</time>
</trkpt>
<trkpt lat="42.74644211403766" lon="-8.956437710810944">
<ele>57</ele>
<time>2015-08-29T19:05:12Z</time>
</trkpt>
<trkpt lat="42.74643621779763" lon="-8.95644132399677">
<ele>57</ele>
<time>2015-08-29T19:05:14Z</time>
</trkpt>
<trkpt lat="42.74642640579578" lon="-8.956443096461943">
<ele>57</ele>
<time>2015-08-29T19:05:16Z</time>
</trkpt>
<trkpt lat="42.74641976041109" lon="-8.956445337127722">
<ele>57</ele>
<time>2015-08-29T19:05:18Z</time>
</trkpt>
<trkpt lat="42.7464154827283" lon="-8.956447777651947">
<ele>57</ele>
<time>2015-08-29T19:05:20Z</time>
</trkpt>
<trkpt lat="42.74641272933727" lon="-8.956450058976019">
<ele>57</ele>
<time>2015-08-29T19:05:22Z</time>
</trkpt>
<trkpt lat="42.746410422256325" lon="-8.95645040714025">
<ele>57</ele>
<time>2015-08-29T19:05:24Z</time>
</trkpt>
<trkpt lat="42.74640935232295" lon="-8.956453371141961">
<ele>57</ele>
<time>2015-08-29T19:05:26Z</time>
</trkpt>
<trkpt lat="42.746410059197665" lon="-8.956453592205383">
<ele>57</ele>
<time>2015-08-29T19:05:28Z</time>
</trkpt>
<trkpt lat="42.74641119100945" lon="-8.956448650359157">
<ele>57</ele>
<time>2015-08-29T19:05:30Z</time>
</trkpt>
<trkpt lat="42.746409972517846" lon="-8.956438318755401">
<ele>57</ele>
<time>2015-08-29T19:05:32Z</time>
</trkpt>
<trkpt lat="42.74640246572433" lon="-8.956428024286854">
<ele>57</ele>
<time>2015-08-29T19:05:34Z</time>
</trkpt>
<trkpt lat="42.74639410015336" lon="-8.956422892660889">
<ele>57</ele>
<time>2015-08-29T19:05:36Z</time>
</trkpt>
<trkpt lat="42.746388451638886" lon="-8.956418465085836">
<ele>57</ele>
<time>2015-08-29T19:05:38Z</time>
</trkpt>
<trkpt lat="42.74638428297172" lon="-8.956417494553515">
<ele>57</ele>
<time>2015-08-29T19:05:40Z</time>
</trkpt>
<trkpt lat="42.74638285870002" lon="-8.956419956314914">
<ele>57</ele>
<time>2015-08-29T19:05:42Z</time>
</trkpt>
<trkpt lat="42.746385998207636" lon="-8.956420175683267">
<ele>57</ele>
<time>2015-08-29T19:05:44Z</time>
</trkpt>
<trkpt lat="42.746389091335786" lon="-8.956419606310591">
<ele>57</ele>
<time>2015-08-29T19:05:46Z</time>
</trkpt>
<trkpt lat="42.74639225723489" lon="-8.956416953069033">
<ele>57</ele>
<time>2015-08-29T19:05:48Z</time>
</trkpt>
<trkpt lat="42.7463945997672" lon="-8.956413015013904">
<ele>57</ele>
<time>2015-08-29T19:05:50Z</time>
</trkpt>
<trkpt lat="42.74639668390771" lon="-8.956414055828311">
<ele>56</ele>
<time>2015-08-29T19:05:52Z</time>
</trkpt>
<trkpt lat="42.74639762204665" lon="-8.956414644696073">
<ele>56</ele>
<time>2015-08-29T19:05:54Z</time>
</trkpt>
<trkpt lat="42.74639656521902" lon="-8.956416028543355">
<ele>56</ele>
<time>2015-08-29T19:05:56Z</time>
</trkpt>
<trkpt lat="42.74639188237533" lon="-8.95641950508107">
<ele>56</ele>
<time>2015-08-29T19:05:58Z</time>
</trkpt>
<trkpt lat="42.74638555142198" lon="-8.956424557102672">
<ele>56</ele>
<time>2015-08-29T19:06:00Z</time>
</trkpt>
<trkpt lat="42.74637692572372" lon="-8.956428891466327">
<ele>56</ele>
<time>2015-08-29T19:06:02Z</time>
</trkpt>
<trkpt lat="42.746372915266306" lon="-8.956433778184634">
<ele>56</ele>
<time>2015-08-29T19:06:04Z</time>
</trkpt>
<trkpt lat="42.74637148475129" lon="-8.956439202415707">
<ele>56</ele>
<time>2015-08-29T19:06:06Z</time>
</trkpt>
<trkpt lat="42.74637349936958" lon="-8.956440851796673">
<ele>56</ele>
<time>2015-08-29T19:06:08Z</time>
</trkpt>
<trkpt lat="42.74637553237534" lon="-8.95644108243843">
<ele>56</ele>
<time>2015-08-29T19:06:10Z</time>
</trkpt>
<trkpt lat="42.74637202705347" lon="-8.9564414578379">
<ele>56</ele>
<time>2015-08-29T19:06:12Z</time>
</trkpt>
<trkpt lat="42.74637053329893" lon="-8.95644104985372">
<ele>56</ele>
<time>2015-08-29T19:06:14Z</time>
</trkpt>
<trkpt lat="42.74636989449722" lon="-8.956442185205512">
<ele>56</ele>
<time>2015-08-29T19:06:16Z</time>
</trkpt>
<trkpt lat="42.74637492078777" lon="-8.956445632125758">
<ele>56</ele>
<time>2015-08-29T19:06:18Z</time>
</trkpt>
<trkpt lat="42.74638040359054" lon="-8.95644869855968">
<ele>56</ele>
<time>2015-08-29T19:06:20Z</time>
</trkpt>
<trkpt lat="42.74638726048563" lon="-8.956451877299582">
<ele>56</ele>
<time>2015-08-29T19:06:22Z</time>
</trkpt>
<trkpt lat="42.74639463927942" lon="-8.956451420035044">
<ele>56</ele>
<time>2015-08-29T19:06:24Z</time>
</trkpt>
<trkpt lat="42.746399555872046" lon="-8.956451734688846">
<ele>56</ele>
<time>2015-08-29T19:06:26Z</time>
</trkpt>
<trkpt lat="42.746404847595976" lon="-8.956451261740064">
<ele>56</ele>
<time>2015-08-29T19:06:28Z</time>
</trkpt>
<trkpt lat="42.74641271904888" lon="-8.956447388344847">
<ele>56</ele>
<time>2015-08-29T19:06:30Z</time>
</trkpt>
<trkpt lat="42.746413629653375" lon="-8.956447496164063">
<ele>56</ele>
<time>2015-08-29T19:06:32Z</time>
</trkpt>
<trkpt lat="42.74641437748445" lon="-8.956446997538972">
<ele>56</ele>
<time>2015-08-29T19:06:34Z</time>
</trkpt>
<trkpt lat="42.74640876969634" lon="-8.956454110116445">
<ele>56</ele>
<time>2015-08-29T19:06:36Z</time>
</trkpt>
<trkpt lat="42.74639195767781" lon="-8.956461928261811">
<ele>56</ele>
<time>2015-08-29T19:06:38Z</time>
</trkpt>
<trkpt lat="42.74637979755254" lon="-8.95647501550924">
<ele>56</ele>
<time>2015-08-29T19:06:40Z</time>
</trkpt>
<trkpt lat="42.74637157241124" lon="-8.95649038065845">
<ele>56</ele>
<time>2015-08-29T19:06:42Z</time>
</trkpt>
<trkpt lat="42.7463630059308" lon="-8.956507139992945">
<ele>56</ele>
<time>2015-08-29T19:06:45Z</time>
</trkpt>
<trkpt lat="42.74635831475541" lon="-8.956515310036867">
<ele>56</ele>
<time>2015-08-29T19:06:48Z</time>
</trkpt>
<trkpt lat="42.74635512349753" lon="-8.956519592795505">
<ele>56</ele>
<time>2015-08-29T19:06:50Z</time>
</trkpt>
<trkpt lat="42.74635258639753" lon="-8.95652306106344">
<ele>56</ele>
<time>2015-08-29T19:06:52Z</time>
</trkpt>
<trkpt lat="42.746349040909784" lon="-8.956522112460524">
<ele>56</ele>
<time>2015-08-29T19:06:54Z</time>
</trkpt>
<trkpt lat="42.74634537147394" lon="-8.9565201769893">
<ele>56</ele>
<time>2015-08-29T19:06:56Z</time>
</trkpt>
<trkpt lat="42.74634541442567" lon="-8.956524103257117">
<ele>56</ele>
<time>2015-08-29T19:06:58Z</time>
</trkpt>
<trkpt lat="42.746337397888446" lon="-8.956524712843967">
<ele>56</ele>
<time>2015-08-29T19:07:00Z</time>
</trkpt>
<trkpt lat="42.7463291468466" lon="-8.95652094638072">
<ele>56</ele>
<time>2015-08-29T19:07:02Z</time>
</trkpt>
<trkpt lat="42.7463187817242" lon="-8.956531105646741">
<ele>56</ele>
<time>2015-08-29T19:07:04Z</time>
</trkpt>
<trkpt lat="42.746304596499314" lon="-8.956539293904083">
<ele>56</ele>
<time>2015-08-29T19:07:06Z</time>
</trkpt>
<trkpt lat="42.746298547331826" lon="-8.956544376970113">
<ele>56</ele>
<time>2015-08-29T19:07:08Z</time>
</trkpt>
<trkpt lat="42.74629187012659" lon="-8.956552795828987">
<ele>56</ele>
<time>2015-08-29T19:07:10Z</time>
</trkpt>
<trkpt lat="42.74627521630686" lon="-8.956564388645292">
<ele>56</ele>
<time>2015-08-29T19:07:12Z</time>
</trkpt>
<trkpt lat="42.74625884184738" lon="-8.95657283716692">
<ele>56</ele>
<time>2015-08-29T19:07:14Z</time>
</trkpt>
<trkpt lat="42.74624186683102" lon="-8.956577309848443">
<ele>56</ele>
<time>2015-08-29T19:07:16Z</time>
</trkpt>
<trkpt lat="42.746219395119205" lon="-8.956576529241255">
<ele>56</ele>
<time>2015-08-29T19:07:18Z</time>
</trkpt>
<trkpt lat="42.7462017215399" lon="-8.956577492260783">
<ele>56</ele>
<time>2015-08-29T19:07:20Z</time>
</trkpt>
<trkpt lat="42.746182525127175" lon="-8.95658097195615">
<ele>56</ele>
<time>2015-08-29T19:07:22Z</time>
</trkpt>
<trkpt lat="42.74616845929295" lon="-8.956583574014308">
<ele>56</ele>
<time>2015-08-29T19:07:24Z</time>
</trkpt>
<trkpt lat="42.7461558124899" lon="-8.95658336070707">
<ele>56</ele>
<time>2015-08-29T19:07:26Z</time>
</trkpt>
<trkpt lat="42.74613962131193" lon="-8.956590673720937">
<ele>56</ele>
<time>2015-08-29T19:07:28Z</time>
</trkpt>
<trkpt lat="42.74611488430461" lon="-8.956593530461912">
<ele>56</ele>
<time>2015-08-29T19:07:30Z</time>
</trkpt>
<trkpt lat="42.74609532279454" lon="-8.956590491137387">
<ele>56</ele>
<time>2015-08-29T19:07:32Z</time>
</trkpt>
<trkpt lat="42.74607532886987" lon="-8.956584783617352">
<ele>56</ele>
<time>2015-08-29T19:07:34Z</time>
</trkpt>
<trkpt lat="42.74604181254286" lon="-8.9565705043482">
<ele>56</ele>
<time>2015-08-29T19:07:36Z</time>
</trkpt>
<trkpt lat="42.74602082274906" lon="-8.95655847913206">
<ele>55</ele>
<time>2015-08-29T19:07:38Z</time>
</trkpt>
<trkpt lat="42.74600848533122" lon="-8.95654424344637">
<ele>55</ele>
<time>2015-08-29T19:07:40Z</time>
</trkpt>
<trkpt lat="42.74601263090048" lon="-8.95652761979784">
<ele>55</ele>
<time>2015-08-29T19:07:42Z</time>
</trkpt>
<trkpt lat="42.7460171896305" lon="-8.95651690642643">
<ele>55</ele>
<time>2015-08-29T19:07:44Z</time>
</trkpt>
<trkpt lat="42.746019815891835" lon="-8.956515758454263">
<ele>55</ele>
<time>2015-08-29T19:07:46Z</time>
</trkpt>
<trkpt lat="42.74602471881564" lon="-8.956520023683703">
<ele>55</ele>
<time>2015-08-29T19:07:48Z</time>
</trkpt>
<trkpt lat="42.746026759769855" lon="-8.956525953565368">
<ele>55</ele>
<time>2015-08-29T19:07:50Z</time>
</trkpt>
<trkpt lat="42.74602633764934" lon="-8.956530734788906">
<ele>55</ele>
<time>2015-08-29T19:07:52Z</time>
</trkpt>
<trkpt lat="42.74602452577921" lon="-8.956529644585887">
<ele>55</ele>
<time>2015-08-29T19:07:54Z</time>
</trkpt>
<trkpt lat="42.74602975233575" lon="-8.956511448324715">
<ele>55</ele>
<time>2015-08-29T19:07:57Z</time>
</trkpt>
<trkpt lat="42.746035969215036" lon="-8.95650278355635">
<ele>55</ele>
<time>2015-08-29T19:07:59Z</time>
</trkpt>
<trkpt lat="42.74603860260355" lon="-8.956495381630925">
<ele>55</ele>
<time>2015-08-29T19:08:01Z</time>
</trkpt>
<trkpt lat="42.74603941983621" lon="-8.956491160646877">
<ele>55</ele>
<time>2015-08-29T19:08:03Z</time>
</trkpt>
<trkpt lat="42.746039870336354" lon="-8.956492458753331">
<ele>54</ele>
<time>2015-08-29T19:08:05Z</time>
</trkpt>
<trkpt lat="42.74603747646969" lon="-8.956501362481077">
<ele>54</ele>
<time>2015-08-29T19:08:07Z</time>
</trkpt>
<trkpt lat="42.746031683529985" lon="-8.956513203706823">
<ele>54</ele>
<time>2015-08-29T19:08:09Z</time>
</trkpt>
<trkpt lat="42.74602552199197" lon="-8.956523115863808">
<ele>54</ele>
<time>2015-08-29T19:08:11Z</time>
</trkpt>
<trkpt lat="42.74602135189396" lon="-8.956529742273435">
<ele>54</ele>
<time>2015-08-29T19:08:13Z</time>
</trkpt>
<trkpt lat="42.746019807768555" lon="-8.956525138614122">
<ele>54</ele>
<time>2015-08-29T19:08:15Z</time>
</trkpt>
<trkpt lat="42.746020254015804" lon="-8.956524312656324">
<ele>54</ele>
<time>2015-08-29T19:08:17Z</time>
</trkpt>
<trkpt lat="42.74602875318031" lon="-8.9565225490106">
<ele>54</ele>
<time>2015-08-29T19:08:19Z</time>
</trkpt>
<trkpt lat="42.74604540358576" lon="-8.95652927130051">
<ele>54</ele>
<time>2015-08-29T19:08:21Z</time>
</trkpt>
<trkpt lat="42.746052586776656" lon="-8.956542761721561">
<ele>54</ele>
<time>2015-08-29T19:08:23Z</time>
</trkpt>
<trkpt lat="42.746050104058185" lon="-8.956557221599034">
<ele>54</ele>
<time>2015-08-29T19:08:25Z</time>
</trkpt>
<trkpt lat="42.74604295953453" lon="-8.956569353729078">
<ele>54</ele>
<time>2015-08-29T19:08:27Z</time>
</trkpt>
<trkpt lat="42.74603225122799" lon="-8.956577498014198">
<ele>54</ele>
<time>2015-08-29T19:08:29Z</time>
</trkpt>
<trkpt lat="42.7460219997998" lon="-8.95657896901008">
<ele>54</ele>
<time>2015-08-29T19:08:31Z</time>
</trkpt>
<trkpt lat="42.74601512242447" lon="-8.956578926945017">
<ele>54</ele>
<time>2015-08-29T19:08:33Z</time>
</trkpt>
<trkpt lat="42.746010239301" lon="-8.95658199761113">
<ele>54</ele>
<time>2015-08-29T19:08:35Z</time>
</trkpt>
<trkpt lat="42.74600706753338" lon="-8.956586417035775">
<ele>54</ele>
<time>2015-08-29T19:08:37Z</time>
</trkpt>
<trkpt lat="42.74600574591207" lon="-8.956590218592309">
<ele>54</ele>
<time>2015-08-29T19:08:39Z</time>
</trkpt>
<trkpt lat="42.74600568148995" lon="-8.956593382657672">
<ele>54</ele>
<time>2015-08-29T19:08:41Z</time>
</trkpt>
<trkpt lat="42.74600693860597" lon="-8.956596985640491">
<ele>54</ele>
<time>2015-08-29T19:08:43Z</time>
</trkpt>
<trkpt lat="42.74601590230669" lon="-8.956594028055017">
<ele>54</ele>
<time>2015-08-29T19:08:45Z</time>
</trkpt>
<trkpt lat="42.74602026894003" lon="-8.95659112573453">
<ele>54</ele>
<time>2015-08-29T19:08:47Z</time>
</trkpt>
<trkpt lat="42.74601934871437" lon="-8.956577741748509">
<ele>54</ele>
<time>2015-08-29T19:08:49Z</time>
</trkpt>
<trkpt lat="42.74601724848109" lon="-8.956570342989044">
<ele>54</ele>
<time>2015-08-29T19:08:51Z</time>
</trkpt>
<trkpt lat="42.746019797350904" lon="-8.956567816561948">
<ele>54</ele>
<time>2015-08-29T19:08:53Z</time>
</trkpt>
<trkpt lat="42.74601729648972" lon="-8.956570402621315">
<ele>54</ele>
<time>2015-08-29T19:08:55Z</time>
</trkpt>
<trkpt lat="42.74601791326491" lon="-8.95656729451484">
<ele>54</ele>
<time>2015-08-29T19:08:57Z</time>
</trkpt>
<trkpt lat="42.746016055045374" lon="-8.956565148674112">
<ele>54</ele>
<time>2015-08-29T19:08:59Z</time>
</trkpt>
<trkpt lat="42.7460157546283" lon="-8.9565621844476">
<ele>54</ele>
<time>2015-08-29T19:09:01Z</time>
</trkpt>
<trkpt lat="42.74601973672909" lon="-8.95655928936209">
<ele>54</ele>
<time>2015-08-29T19:09:03Z</time>
</trkpt>
<trkpt lat="42.74602474800947" lon="-8.956555446858587">
<ele>54</ele>
<time>2015-08-29T19:09:05Z</time>
</trkpt>
<trkpt lat="42.746033646575114" lon="-8.956548830030531">
<ele>54</ele>
<time>2015-08-29T19:09:07Z</time>
</trkpt>
<trkpt lat="42.74604142717947" lon="-8.956545251682964">
<ele>54</ele>
<time>2015-08-29T19:09:09Z</time>
</trkpt>
<trkpt lat="" lon="">
<ele></ele>
<time>2015-08-29TZ</time>
</trkpt>
</trkseg>
</trk>
<wpt lat="" lon="">
	<name></name>
	<desc></desc>
	<cmt></cmt>
	<photoid></photoid>
	<type></type>
</wpt>
</gpx>
